Wetterdaten: Montag, 20.07.2020
Datum Zeit Temp. Aussen Temp. o. S. Temp +5cm Feuchte Auss Luftdruck Regen Sonnenschein Regendauer Solar Windben Empfang
20.07.2020 00:00 19,3 C 17,2 C 17,2 C 87 % 1017,0 hPa 0,0 l/m 0 min 0 min 0 W/m 0,0 km/h (0 Bft) 97,87 %
20.07.2020 00:02 19,2 C 17,2 C 17,2 C 87 % 1017,1 hPa 0,0 l/m 0 min 0 min 0 W/m 19,3 km/h (3 Bft) 97,73 %
20.07.2020 00:04 19,2 C 17,2 C 17,2 C 87 % 1017,0 hPa 0,0 l/m 0 min 0 min 0 W/m 3,2 km/h (1 Bft) 97,87 %
20.07.2020 00:08 19,1 C 17,2 C 17,2 C 88 % 1017,0 hPa 0,0 l/m 0 min 0 min 0 W/m 3,2 km/h (1 Bft) 97,85 %
20.07.2020 00:10 19,0 C 17,2 C 17,2 C 88 % 1017,0 hPa 0,0 l/m 0 min 0 min 0 W/m 6,4 km/h (2 Bft) 100,00 %
20.07.2020 00:12 18,9 C 17,2 C 17,2 C 88 % 1017,0 hPa 0,0 l/m 0 min 0 min 0 W/m 6,4 km/h (2 Bft) 100,00 %
20.07.2020 00:14 18,9 C 17,2 C 17,2 C 88 % 1017,0 hPa 0,0 l/m 0 min 0 min 0 W/m 9,7 km/h (2 Bft) 95,74 %
20.07.2020 00:16 18,9 C 17,2 C 17,2 C 88 % 1017,0 hPa 0,0 l/m 0 min 0 min 0 W/m 3,2 km/h (1 Bft) 97,87 %
20.07.2020 00:18 18,8 C 17,2 C 17,2 C 88 % 1016,9 hPa 0,0 l/m 0 min 0 min 0 W/m 3,2 km/h (1 Bft) 100,00 %
20.07.2020 00:20 18,8 C 16,7 C 17,2 C 88 % 1016,9 hPa 0,0 l/m 0 min 0 min 0 W/m 0,0 km/h (0 Bft) 100,00 %
20.07.2020 00:22 18,8 C 16,7 C 17,2 C 88 % 1016,9 hPa 0,0 l/m 0 min 0 min 0 W/m 3,2 km/h (1 Bft) 97,87 %
20.07.2020 00:24 18,8 C 16,7 C 17,2 C 88 % 1016,9 hPa 0,0 l/m 0 min 0 min 0 W/m 0,0 km/h (0 Bft) 100,00 %
20.07.2020 00:26 18,7 C 16,7 C 16,7 C 89 % 1016,9 hPa 0,0 l/m 0 min 0 min 0 W/m 0,0 km/h (0 Bft) 95,74 %
20.07.2020 00:28 18,7 C 16,7 C 16,7 C 89 % 1016,9 hPa 0,0 l/m 0 min 0 min 0 W/m 0,0 km/h (0 Bft) 97,87 %
20.07.2020 00:30 18,7 C 16,7 C 16,7 C 89 % 1016,9 hPa 0,0 l/m 0 min 0 min 0 W/m 0,0 km/h (0 Bft) 95,74 %
20.07.2020 00:32 18,6 C 16,7 C 16,7 C 89 % 1016,8 hPa 0,0 l/m 0 min 0 min 0 W/m 3,2 km/h (1 Bft) 97,83 %
20.07.2020 00:34 18,6 C 16,7 C 16,7 C 89 % 1016,8 hPa 0,0 l/m 0 min 0 min 0 W/m 3,2 km/h (1 Bft) 97,87 %
20.07.2020 00:36 18,6 C 16,7 C 16,7 C 89 % 1016,9 hPa 0,0 l/m 0 min 0 min 0 W/m 3,2 km/h (1 Bft) 97,87 %
20.07.2020 00:38 18,6 C 16,7 C 16,7 C 89 % 1016,8 hPa 0,0 l/m 0 min 0 min 0 W/m 0,0 km/h (0 Bft) 97,87 %
20.07.2020 00:40 18,5 C 16,7 C 16,7 C 89 % 1016,8 hPa 0,0 l/m 0 min 0 min 0 W/m 0,0 km/h (0 Bft) 97,87 %
20.07.2020 00:42 18,4 C 16,7 C 16,7 C 89 % 1016,8 hPa 0,0 l/m 0 min 0 min 0 W/m 0,0 km/h (0 Bft) 97,87 %
20.07.2020 00:44 18,4 C 16,7 C 16,7 C 89 % 1016,9 hPa 0,0 l/m 0 min 0 min 0 W/m 6,4 km/h (2 Bft) 97,83 %
20.07.2020 00:46 18,4 C 16,7 C 16,7 C 89 % 1016,9 hPa 0,0 l/m 0 min 0 min 0 W/m 3,2 km/h (1 Bft) 97,87 %
20.07.2020 00:48 18,4 C 16,7 C 16,7 C 89 % 1016,9 hPa 0,0 l/m 0 min 0 min 0 W/m 0,0 km/h (0 Bft) 93,62 %
20.07.2020 00:50 18,3 C 16,7 C 16,7 C 89 % 1016,9 hPa 0,0 l/m 0 min 0 min 0 W/m 0,0 km/h (0 Bft) 97,87 %
20.07.2020 00:52 18,3 C 16,7 C 16,7 C 89 % 1016,9 hPa 0,0 l/m 0 min 0 min 0 W/m 6,4 km/h (2 Bft) 97,87 %
20.07.2020 00:54 18,3 C 16,7 C 16,7 C 90 % 1016,9 hPa 0,0 l/m 0 min 0 min 0 W/m 0,0 km/h (0 Bft) 95,74 %
20.07.2020 00:56 18,3 C 16,7 C 16,7 C 90 % 1016,9 hPa 0,0 l/m 0 min 0 min 0 W/m 3,2 km/h (1 Bft) 97,83 %
20.07.2020 00:58 18,2 C 16,7 C 16,7 C 90 % 1016,9 hPa 0,0 l/m 0 min 0 min 0 W/m 3,2 km/h (1 Bft) 97,87 %
20.07.2020 01:00 18,2 C 16,7 C 16,7 C 90 % 1016,9 hPa 0,0 l/m 0 min 0 min 0 W/m 0,0 km/h (0 Bft) 97,87 %
20.07.2020 01:02 18,2 C 16,7 C 16,7 C 90 % 1016,9 hPa 0,0 l/m 0 min 0 min 0 W/m 0,0 km/h (0 Bft) 97,87 %
20.07.2020 01:04 18,2 C 16,7 C 16,7 C 90 % 1016,9 hPa 0,0 l/m 0 min 0 min 0 W/m 0,0 km/h (0 Bft) 97,78 %
20.07.2020 01:06 18,2 C 16,7 C 16,7 C 90 % 1017,0 hPa 0,0 l/m 0 min 0 min 0 W/m 0,0 km/h (0 Bft) 95,74 %
20.07.2020 01:08 18,1 C 16,7 C 16,7 C 90 % 1016,9 hPa 0,0 l/m 0 min 0 min 0 W/m 9,7 km/h (2 Bft) 97,87 %
20.07.2020 01:10 18,1 C 16,7 C 16,7 C 90 % 1017,0 hPa 0,0 l/m 0 min 0 min 0 W/m 3,2 km/h (1 Bft) 97,87 %
20.07.2020 01:12 18,1 C 16,7 C 16,7 C 90 % 1017,0 hPa 0,0 l/m 0 min 0 min 0 W/m 3,2 km/h (1 Bft) 97,87 %
20.07.2020 01:14 18,1 C 16,7 C 16,7 C 91 % 1017,0 hPa 0,0 l/m 0 min 0 min 0 W/m 6,4 km/h (2 Bft) 95,74 %
20.07.2020 01:16 18,1 C 16,7 C 16,7 C 91 % 1017,0 hPa 0,0 l/m 0 min 0 min 0 W/m 6,4 km/h (2 Bft) 95,65 %
20.07.2020 01:18 18,1 C 16,7 C 17,2 C 91 % 1017,0 hPa 0,0 l/m 0 min 0 min 0 W/m 3,2 km/h (1 Bft) 95,74 %
20.07.2020 01:20 18,0 C 17,2 C 17,2 C 91 % 1017,1 hPa 0,0 l/m 0 min 0 min 0 W/m 3,2 km/h (1 Bft) 95,74 %
20.07.2020 01:22 18,0 C 16,7 C 17,2 C 91 % 1017,0 hPa 0,0 l/m 0 min 0 min 0 W/m 3,2 km/h (1 Bft) 95,74 %
20.07.2020 01:24 17,9 C 16,7 C 17,2 C 91 % 1017,0 hPa 0,0 l/m 0 min 0 min 0 W/m 9,7 km/h (2 Bft) 93,62 %
20.07.2020 01:26 17,9 C 16,7 C 17,2 C 91 % 1017,0 hPa 0,0 l/m 0 min 0 min 0 W/m 3,2 km/h (1 Bft) 97,83 %
20.07.2020 01:28 17,9 C 16,7 C 16,7 C 91 % 1017,0 hPa 0,0 l/m 0 min 0 min 0 W/m 6,4 km/h (2 Bft) 95,74 %
20.07.2020 01:30 17,9 C 16,7 C 16,7 C 91 % 1017,0 hPa 0,0 l/m 0 min 0 min 0 W/m 3,2 km/h (1 Bft) 95,74 %
20.07.2020 01:32 17,9 C 16,7 C 16,7 C 90 % 1016,9 hPa 0,0 l/m 0 min 0 min 0 W/m 6,4 km/h (2 Bft) 95,74 %
20.07.2020 01:34 17,8 C 16,7 C 16,7 C 90 % 1017,0 hPa 0,0 l/m 0 min 0 min 0 W/m 3,2 km/h (1 Bft) 97,87 %
20.07.2020 01:36 17,8 C 16,7 C 16,7 C 90 % 1017,0 hPa 0,0 l/m 0 min 0 min 0 W/m 6,4 km/h (2 Bft) 91,49 %
20.07.2020 01:38 17,8 C 16,7 C 16,7 C 90 % 1017,0 hPa 0,0 l/m 0 min 0 min 0 W/m 3,2 km/h (1 Bft) 97,87 %
20.07.2020 01:40 17,7 C 16,7 C 16,7 C 90 % 1017,0 hPa 0,0 l/m 0 min 0 min 0 W/m 0,0 km/h (0 Bft) 100,00 %
20.07.2020 01:42 17,7 C 16,1 C 16,7 C 90 % 1017,0 hPa 0,0 l/m 0 min 0 min 0 W/m 3,2 km/h (1 Bft) 95,74 %
20.07.2020 01:44 17,7 C 16,1 C 16,7 C 90 % 1017,0 hPa 0,0 l/m 0 min 0 min 0 W/m 0,0 km/h (0 Bft) 97,87 %
20.07.2020 01:46 17,6 C 16,1 C 16,7 C 89 % 1017,0 hPa 0,0 l/m 0 min 0 min 0 W/m 0,0 km/h (0 Bft) 95,74 %
20.07.2020 01:48 17,6 C 16,1 C 16,7 C 89 % 1017,1 hPa 0,0 l/m 0 min 0 min 0 W/m 0,0 km/h (0 Bft) 97,87 %
20.07.2020 01:50 17,6 C 16,1 C 16,7 C 89 % 1017,0 hPa 0,0 l/m 0 min 0 min 0 W/m 3,2 km/h (1 Bft) 97,83 %
20.07.2020 01:52 17,6 C 16,1 C 16,7 C 89 % 1017,0 hPa 0,0 l/m 0 min 0 min 0 W/m 3,2 km/h (1 Bft) 97,87 %
20.07.2020 01:54 17,5 C 16,1 C 16,1 C 89 % 1017,1 hPa 0,0 l/m 0 min 0 min 0 W/m 6,4 km/h (2 Bft) 97,87 %
20.07.2020 01:56 17,4 C 16,1 C 16,1 C 89 % 1017,1 hPa 0,0 l/m 0 min 0 min 0 W/m 0,0 km/h (0 Bft) 95,74 %
20.07.2020 01:58 17,4 C 16,1 C 16,1 C 89 % 1017,1 hPa 0,0 l/m 0 min 0 min 0 W/m 0,0 km/h (0 Bft) 97,87 %
20.07.2020 02:00 17,4 C 16,1 C 16,1 C 89 % 1017,1 hPa 0,0 l/m 0 min 0 min 0 W/m 3,2 km/h (1 Bft) 97,87 %
20.07.2020 02:02 17,4 C 16,1 C 16,1 C 89 % 1017,2 hPa 0,0 l/m 0 min 0 min 0 W/m 0,0 km/h (0 Bft) 97,83 %
20.07.2020 02:04 17,4 C 16,1 C 16,1 C 89 % 1017,2 hPa 0,0 l/m 0 min 0 min 0 W/m 3,2 km/h (1 Bft) 95,74 %
20.07.2020 02:06 17,4 C 16,1 C 16,1 C 89 % 1017,2 hPa 0,0 l/m 0 min 0 min 0 W/m 6,4 km/h (2 Bft) 97,87 %
20.07.2020 02:08 17,3 C 16,1 C 16,1 C 89 % 1017,2 hPa 0,0 l/m 0 min 0 min 0 W/m 3,2 km/h (1 Bft) 93,62 %
20.07.2020 02:10 17,3 C 16,1 C 16,1 C 89 % 1017,2 hPa 0,0 l/m 0 min 0 min 0 W/m 0,0 km/h (0 Bft) 52,27 %
20.07.2020 02:12 17,3 C 16,1 C 16,1 C 89 % 1017,2 hPa 0,0 l/m 0 min 0 min 0 W/m 0,0 km/h (0 Bft) 97,87 %
20.07.2020 02:14 17,3 C 16,1 C 16,1 C 89 % 1017,1 hPa 0,0 l/m 0 min 0 min 0 W/m 3,2 km/h (1 Bft) 97,83 %
20.07.2020 02:16 17,3 C 16,1 C 16,1 C 89 % 1017,2 hPa 0,0 l/m 0 min 0 min 0 W/m 6,4 km/h (2 Bft) 97,87 %
20.07.2020 02:18 17,3 C 16,1 C 16,1 C 89 % 1017,1 hPa 0,0 l/m 0 min 0 min 0 W/m 3,2 km/h (1 Bft) 95,74 %
20.07.2020 02:20 17,3 C 16,1 C 16,1 C 89 % 1017,0 hPa 0,0 l/m 0 min 0 min 0 W/m 0,0 km/h (0 Bft) 97,87 %
20.07.2020 02:22 17,3 C 16,1 C 16,1 C 89 % 1017,0 hPa 0,0 l/m 0 min 0 min 0 W/m 0,0 km/h (0 Bft) 97,87 %
20.07.2020 02:24 17,3 C 16,1 C 16,1 C 89 % 1017,1 hPa 0,0 l/m 0 min 0 min 0 W/m 3,2 km/h (1 Bft) 97,87 %
20.07.2020 02:26 17,3 C 16,1 C 16,1 C 89 % 1017,1 hPa 0,0 l/m 0 min 0 min 0 W/m 3,2 km/h (1 Bft) 100,00 %
20.07.2020 02:28 17,3 C 16,1 C 16,1 C 89 % 1017,1 hPa 0,0 l/m 0 min 0 min 0 W/m 3,2 km/h (1 Bft) 97,87 %
20.07.2020 02:30 17,3 C 16,1 C 16,1 C 89 % 1017,1 hPa 0,0 l/m 0 min 0 min 0 W/m 0,0 km/h (0 Bft) 97,87 %
20.07.2020 02:32 17,3 C 16,1 C 16,1 C 89 % 1017,1 hPa 0,0 l/m 0 min 0 min 0 W/m 0,0 km/h (0 Bft) 97,87 %
20.07.2020 02:34 17,2 C 16,1 C 16,1 C 89 % 1017,2 hPa 0,0 l/m 0 min 0 min 0 W/m 3,2 km/h (1 Bft) 93,62 %
20.07.2020 02:36 17,2 C 16,1 C 16,1 C 89 % 1017,2 hPa 0,0 l/m 0 min 0 min 0 W/m 0,0 km/h (0 Bft) 97,83 %
20.07.2020 02:38 17,2 C 16,1 C 16,1 C 89 % 1017,1 hPa 0,0 l/m 0 min 0 min 0 W/m 0,0 km/h (0 Bft) 97,87 %
20.07.2020 02:40 17,2 C 16,1 C 16,1 C 89 % 1017,1 hPa 0,0 l/m 0 min 0 min 0 W/m 0,0 km/h (0 Bft) 97,87 %
20.07.2020 02:42 17,2 C 16,1 C 16,1 C 90 % 1017,0 hPa 0,0 l/m 0 min 0 min 0 W/m 0,0 km/h (0 Bft) 95,74 %
20.07.2020 02:44 17,2 C 16,1 C 16,1 C 90 % 1017,0 hPa 0,0 l/m 0 min 0 min 0 W/m 0,0 km/h (0 Bft) 95,74 %
20.07.2020 02:46 17,2 C 16,1 C 16,1 C 90 % 1017,1 hPa 0,0 l/m 0 min 0 min 0 W/m 0,0 km/h (0 Bft) 97,87 %
20.07.2020 02:48 17,2 C 16,1 C 16,1 C 90 % 1017,1 hPa 0,0 l/m 0 min 0 min 0 W/m 0,0 km/h (0 Bft) 97,83 %
20.07.2020 02:50 17,2 C 15,6 C 16,1 C 90 % 1017,0 hPa 0,0 l/m 0 min 0 min 0 W/m 0,0 km/h (0 Bft) 95,74 %
20.07.2020 02:52 17,2 C 15,6 C 16,1 C 90 % 1017,1 hPa 0,0 l/m 0 min 2 min 0 W/m 0,0 km/h (0 Bft) 97,87 %
20.07.2020 02:54 17,2 C 15,6 C 16,1 C 90 % 1017,1 hPa 0,0 l/m 0 min 2 min 0 W/m 6,4 km/h (2 Bft) 97,87 %
20.07.2020 02:56 17,2 C 15,6 C 16,1 C 90 % 1017,1 hPa 0,0 l/m 0 min 2 min 0 W/m 3,2 km/h (1 Bft) 95,74 %
20.07.2020 02:58 17,1 C 15,6 C 16,1 C 90 % 1017,1 hPa 0,0 l/m 0 min 0 min 0 W/m 0,0 km/h (0 Bft) 97,87 %
20.07.2020 03:00 17,1 C 15,6 C 15,6 C 90 % 1017,2 hPa 0,0 l/m 0 min 0 min 0 W/m 6,4 km/h (2 Bft) 97,83 %
20.07.2020 03:02 17,1 C 15,6 C 15,6 C 90 % 1017,2 hPa 0,0 l/m 0 min 0 min 0 W/m 6,4 km/h (2 Bft) 97,87 %
20.07.2020 03:04 17,1 C 15,6 C 15,6 C 91 % 1017,2 hPa 0,0 l/m 0 min 0 min 0 W/m 0,0 km/h (0 Bft) 97,87 %
20.07.2020 03:06 17,1 C 15,6 C 15,6 C 91 % 1017,2 hPa 0,0 l/m 0 min 0 min 0 W/m 3,2 km/h (1 Bft) 100,00 %
20.07.2020 03:08 17,1 C 15,6 C 16,1 C 91 % 1017,2 hPa 0,0 l/m 0 min 0 min 0 W/m 0,0 km/h (0 Bft) 100,00 %
20.07.2020 03:10 17,1 C 15,6 C 16,1 C 91 % 1017,2 hPa 0,0 l/m 0 min 0 min 0 W/m 0,0 km/h (0 Bft) 97,87 %
20.07.2020 03:12 17,1 C 15,6 C 16,1 C 91 % 1017,3 hPa 0,0 l/m 0 min 0 min 0 W/m 0,0 km/h (0 Bft) 97,83 %
20.07.2020 03:14 17,1 C 15,6 C 16,1 C 91 % 1017,3 hPa 0,0 l/m 0 min 0 min 0 W/m 3,2 km/h (1 Bft) 97,87 %
20.07.2020 03:16 17,0 C 15,6 C 15,6 C 91 % 1017,3 hPa 0,0 l/m 0 min 0 min 0 W/m 6,4 km/h (2 Bft) 97,87 %
20.07.2020 03:18 17,0 C 15,6 C 16,1 C 91 % 1017,2 hPa 0,0 l/m 0 min 0 min 0 W/m 3,2 km/h (1 Bft) 100,00 %
20.07.2020 03:20 17,0 C 15,6 C 15,6 C 91 % 1017,2 hPa 0,0 l/m 0 min 0 min 0 W/m 0,0 km/h (0 Bft) 95,74 %
20.07.2020 03:22 16,9 C 15,6 C 15,6 C 91 % 1017,2 hPa 0,0 l/m 0 min 0 min 0 W/m 0,0 km/h (0 Bft) 91,49 %
20.07.2020 03:24 16,9 C 15,6 C 16,1 C 91 % 1017,2 hPa 0,0 l/m 0 min 0 min 0 W/m 3,2 km/h (1 Bft) 100,00 %
20.07.2020 03:26 16,9 C 15,6 C 15,6 C 91 % 1017,2 hPa 0,0 l/m 0 min 0 min 0 W/m 0,0 km/h (0 Bft) 100,00 %
20.07.2020 03:28 16,9 C 15,6 C 15,6 C 91 % 1017,2 hPa 0,0 l/m 0 min 0 min 0 W/m 6,4 km/h (2 Bft) 100,00 %
20.07.2020 03:30 16,9 C 15,6 C 15,6 C 91 % 1017,2 hPa 0,0 l/m 0 min 0 min 0 W/m 3,2 km/h (1 Bft) 100,00 %
20.07.2020 03:32 16,9 C 15,6 C 15,6 C 91 % 1017,2 hPa 0,0 l/m 0 min 0 min 0 W/m 3,2 km/h (1 Bft) 100,00 %
20.07.2020 03:34 16,8 C 15,6 C 15,6 C 91 % 1017,2 hPa 0,0 l/m 0 min 0 min 0 W/m 0,0 km/h (0 Bft) 100,00 %
20.07.2020 03:36 16,8 C 15,6 C 15,6 C 91 % 1017,2 hPa 0,0 l/m 0 min 0 min 0 W/m 6,4 km/h (2 Bft) 100,00 %
20.07.2020 03:38 16,8 C 15,6 C 15,6 C 92 % 1017,2 hPa 0,0 l/m 0 min 0 min 0 W/m 0,0 km/h (0 Bft) 100,00 %
20.07.2020 03:40 16,8 C 15,6 C 15,6 C 92 % 1017,3 hPa 0,0 l/m 0 min 0 min 0 W/m 3,2 km/h (1 Bft) 100,00 %
20.07.2020 03:42 16,8 C 15,6 C 15,6 C 92 % 1017,3 hPa 0,0 l/m 0 min 0 min 0 W/m 6,4 km/h (2 Bft) 100,00 %
20.07.2020 03:44 16,8 C 15,6 C 15,6 C 92 % 1017,3 hPa 0,0 l/m 0 min 0 min 0 W/m 3,2 km/h (1 Bft) 100,00 %
20.07.2020 03:46 16,8 C 15,6 C 15,6 C 92 % 1017,4 hPa 0,0 l/m 0 min 0 min 0 W/m 3,2 km/h (1 Bft) 100,00 %
20.07.2020 03:48 16,7 C 15,6 C 15,6 C 92 % 1017,4 hPa 0,0 l/m 0 min 0 min 0 W/m 6,4 km/h (2 Bft) 100,00 %
20.07.2020 03:50 16,7 C 15,6 C 15,6 C 92 % 1017,4 hPa 0,0 l/m 0 min 0 min 0 W/m 3,2 km/h (1 Bft) 100,00 %
20.07.2020 03:52 16,7 C 15,6 C 15,6 C 92 % 1017,4 hPa 0,0 l/m 0 min 0 min 0 W/m 9,7 km/h (2 Bft) 100,00 %
20.07.2020 03:54 16,7 C 15,6 C 15,6 C 92 % 1017,4 hPa 0,0 l/m 0 min 0 min 0 W/m 3,2 km/h (1 Bft) 97,87 %
20.07.2020 03:56 16,7 C 15,0 C 15,6 C 92 % 1017,5 hPa 0,0 l/m 0 min 0 min 0 W/m 3,2 km/h (1 Bft) 97,87 %
20.07.2020 03:58 16,6 C 15,0 C 15,6 C 92 % 1017,4 hPa 0,0 l/m 0 min 0 min 0 W/m 0,0 km/h (0 Bft) 100,00 %
20.07.2020 04:00 16,6 C 15,0 C 15,6 C 92 % 1017,4 hPa 0,0 l/m 0 min 0 min 0 W/m 3,2 km/h (1 Bft) 100,00 %
20.07.2020 04:02 16,6 C 15,0 C 15,6 C 92 % 1017,4 hPa 0,0 l/m 0 min 0 min 0 W/m 3,2 km/h (1 Bft) 100,00 %
20.07.2020 04:04 16,6 C 15,0 C 15,6 C 92 % 1017,4 hPa 0,0 l/m 0 min 2 min 0 W/m 3,2 km/h (1 Bft) 93,62 %
20.07.2020 04:06 16,6 C 15,0 C 15,6 C 92 % 1017,4 hPa 0,0 l/m 0 min 0 min 0 W/m 3,2 km/h (1 Bft) 97,87 %
20.07.2020 04:08 16,6 C 15,0 C 15,6 C 92 % 1017,4 hPa 0,0 l/m 0 min 0 min 0 W/m 6,4 km/h (2 Bft) 97,87 %
20.07.2020 04:10 16,6 C 15,0 C 15,6 C 92 % 1017,4 hPa 0,0 l/m 0 min 0 min 0 W/m 3,2 km/h (1 Bft) 97,83 %
20.07.2020 04:12 16,5 C 15,0 C 15,6 C 92 % 1017,3 hPa 0,0 l/m 0 min 0 min 0 W/m 0,0 km/h (0 Bft) 97,87 %
20.07.2020 04:14 16,5 C 15,0 C 15,6 C 93 % 1017,3 hPa 0,0 l/m 0 min 0 min 0 W/m 0,0 km/h (0 Bft) 97,87 %
20.07.2020 04:16 16,5 C 15,0 C 15,6 C 93 % 1017,4 hPa 0,0 l/m 0 min 0 min 0 W/m 6,4 km/h (2 Bft) 97,87 %
20.07.2020 04:18 16,4 C 15,0 C 15,6 C 92 % 1017,4 hPa 0,0 l/m 0 min 0 min 0 W/m 6,4 km/h (2 Bft) 95,74 %
20.07.2020 04:20 16,4 C 15,0 C 15,6 C 93 % 1017,4 hPa 0,0 l/m 0 min 0 min 0 W/m 3,2 km/h (1 Bft) 95,74 %
20.07.2020 04:22 16,4 C 15,0 C 15,6 C 93 % 1017,5 hPa 0,0 l/m 0 min 0 min 0 W/m 0,0 km/h (0 Bft) 95,65 %
20.07.2020 04:24 16,4 C 15,0 C 15,6 C 93 % 1017,5 hPa 0,0 l/m 0 min 0 min 0 W/m 3,2 km/h (1 Bft) 91,49 %
20.07.2020 04:26 16,4 C 15,0 C 15,6 C 93 % 1017,5 hPa 0,0 l/m 0 min 0 min 0 W/m 6,4 km/h (2 Bft) 95,74 %
20.07.2020 04:28 16,3 C 15,0 C 15,6 C 93 % 1017,4 hPa 0,0 l/m 0 min 0 min 0 W/m 3,2 km/h (1 Bft) 95,74 %
20.07.2020 04:30 16,3 C 15,0 C 15,6 C 93 % 1017,4 hPa 0,0 l/m 0 min 0 min 0 W/m 3,2 km/h (1 Bft) 95,74 %
20.07.2020 04:32 16,3 C 15,0 C 15,0 C 93 % 1017,5 hPa 0,0 l/m 0 min 0 min 0 W/m 9,7 km/h (2 Bft) 95,74 %
20.07.2020 04:34 16,3 C 15,0 C 15,0 C 93 % 1017,6 hPa 0,0 l/m 0 min 0 min 0 W/m 3,2 km/h (1 Bft) 95,65 %
20.07.2020 04:36 16,2 C 15,0 C 15,0 C 93 % 1017,6 hPa 0,0 l/m 0 min 0 min 0 W/m 3,2 km/h (1 Bft) 93,62 %
20.07.2020 04:38 16,2 C 15,0 C 15,0 C 93 % 1017,7 hPa 0,0 l/m 0 min 0 min 0 W/m 3,2 km/h (1 Bft) 95,74 %
20.07.2020 04:40 16,2 C 15,0 C 15,0 C 93 % 1017,6 hPa 0,0 l/m 0 min 0 min 0 W/m 12,9 km/h (3 Bft) 95,74 %
20.07.2020 04:42 16,2 C 15,0 C 15,0 C 93 % 1017,6 hPa 0,0 l/m 0 min 0 min 0 W/m 3,2 km/h (1 Bft) 93,62 %
20.07.2020 04:44 16,1 C 15,0 C 15,0 C 93 % 1017,5 hPa 0,0 l/m 0 min 0 min 0 W/m 3,2 km/h (1 Bft) 95,65 %
20.07.2020 04:46 16,1 C 14,4 C 15,0 C 93 % 1017,6 hPa 0,0 l/m 0 min 0 min 0 W/m 3,2 km/h (1 Bft) 93,62 %
20.07.2020 04:48 16,1 C 14,4 C 15,0 C 93 % 1017,6 hPa 0,0 l/m 0 min 0 min 0 W/m 3,2 km/h (1 Bft) 95,74 %
20.07.2020 04:50 16,1 C 14,4 C 15,0 C 93 % 1017,6 hPa 0,0 l/m 0 min 0 min 0 W/m 6,4 km/h (2 Bft) 97,87 %
20.07.2020 04:52 16,0 C 14,4 C 15,0 C 93 % 1017,6 hPa 0,0 l/m 0 min 2 min 0 W/m 9,7 km/h (2 Bft) 95,74 %
20.07.2020 04:54 16,0 C 14,4 C 15,0 C 93 % 1017,6 hPa 0,0 l/m 0 min 2 min 0 W/m 3,2 km/h (1 Bft) 93,62 %
20.07.2020 04:56 15,9 C 14,4 C 15,0 C 93 % 1017,6 hPa 0,0 l/m 0 min 0 min 0 W/m 9,7 km/h (2 Bft) 97,83 %
20.07.2020 04:58 15,9 C 14,4 C 15,0 C 93 % 1017,6 hPa 0,0 l/m 0 min 0 min 0 W/m 3,2 km/h (1 Bft) 97,87 %
20.07.2020 05:00 15,9 C 14,4 C 15,0 C 93 % 1017,6 hPa 0,0 l/m 0 min 2 min 0 W/m 6,4 km/h (2 Bft) 97,87 %
20.07.2020 05:02 15,9 C 14,4 C 15,0 C 93 % 1017,6 hPa 0,0 l/m 0 min 2 min 0 W/m 3,2 km/h (1 Bft) 97,87 %
20.07.2020 05:04 15,9 C 14,4 C 14,4 C 93 % 1017,7 hPa 0,0 l/m 0 min 2 min 0 W/m 0,0 km/h (0 Bft) 97,87 %
20.07.2020 05:06 15,9 C 13,9 C 14,4 C 94 % 1017,6 hPa 0,0 l/m 0 min 2 min 0 W/m 3,2 km/h (1 Bft) 95,74 %
20.07.2020 05:08 15,8 C 13,9 C 14,4 C 94 % 1017,6 hPa 0,0 l/m 0 min 2 min 0 W/m 3,2 km/h (1 Bft) 97,83 %
20.07.2020 05:10 15,8 C 13,9 C 14,4 C 94 % 1017,7 hPa 0,0 l/m 0 min 2 min 0 W/m 3,2 km/h (1 Bft) 95,74 %
20.07.2020 05:12 15,8 C 13,9 C 14,4 C 94 % 1017,6 hPa 0,0 l/m 0 min 2 min 0 W/m 6,4 km/h (2 Bft) 95,74 %
20.07.2020 05:14 15,8 C 13,9 C 14,4 C 94 % 1017,7 hPa 0,0 l/m 0 min 2 min 0 W/m 3,2 km/h (1 Bft) 95,74 %
20.07.2020 05:16 15,8 C 13,9 C 14,4 C 94 % 1017,7 hPa 0,2 l/m 0 min 2 min 0 W/m 0,0 km/h (0 Bft) 95,74 %
20.07.2020 05:18 15,8 C 13,9 C 13,9 C 94 % 1017,7 hPa 0,0 l/m 0 min 2 min 0 W/m 6,4 km/h (2 Bft) 95,74 %
20.07.2020 05:20 15,8 C 13,9 C 13,9 C 94 % 1017,7 hPa 0,0 l/m 0 min 2 min 0 W/m 12,9 km/h (3 Bft) 95,65 %
20.07.2020 05:22 15,7 C 13,9 C 13,9 C 94 % 1017,8 hPa 0,0 l/m 0 min 2 min 0 W/m 6,4 km/h (2 Bft) 95,74 %
20.07.2020 05:24 15,7 C 13,9 C 13,9 C 94 % 1017,8 hPa 0,0 l/m 0 min 2 min 0 W/m 3,2 km/h (1 Bft) 95,74 %
20.07.2020 05:26 15,7 C 13,9 C 13,9 C 94 % 1017,8 hPa 0,0 l/m 0 min 0 min 0 W/m 3,2 km/h (1 Bft) 93,62 %
20.07.2020 05:28 15,7 C 13,9 C 13,9 C 94 % 1017,8 hPa 0,0 l/m 0 min 0 min 0 W/m 3,2 km/h (1 Bft) 97,87 %
20.07.2020 05:30 15,7 C 13,9 C 13,9 C 94 % 1017,8 hPa 0,0 l/m 0 min 0 min 0 W/m 3,2 km/h (1 Bft) 95,74 %
20.07.2020 05:32 15,6 C 13,9 C 13,9 C 94 % 1017,7 hPa 0,0 l/m 0 min 0 min 0 W/m 6,4 km/h (2 Bft) 97,83 %
20.07.2020 05:34 15,6 C 13,9 C 13,9 C 94 % 1017,8 hPa 0,0 l/m 0 min 0 min 0 W/m 3,2 km/h (1 Bft) 97,87 %
20.07.2020 05:36 15,6 C 13,9 C 13,9 C 94 % 1017,7 hPa 0,0 l/m 0 min 0 min 0 W/m 3,2 km/h (1 Bft) 97,87 %
20.07.2020 05:38 15,6 C 13,9 C 13,9 C 95 % 1017,7 hPa 0,0 l/m 0 min 0 min 0 W/m 6,4 km/h (2 Bft) 95,74 %
20.07.2020 05:40 15,6 C 13,9 C 13,9 C 95 % 1017,8 hPa 0,0 l/m 0 min 0 min 0 W/m 3,2 km/h (1 Bft) 97,87 %
20.07.2020 05:42 15,6 C 13,9 C 13,9 C 95 % 1017,8 hPa 0,2 l/m 0 min 0 min 0 W/m 3,2 km/h (1 Bft) 97,87 %
20.07.2020 05:44 15,6 C 13,9 C 13,9 C 95 % 1017,9 hPa 0,0 l/m 0 min 0 min 0 W/m 3,2 km/h (1 Bft) 95,65 %
20.07.2020 05:46 15,5 C 13,9 C 13,9 C 95 % 1017,9 hPa 0,0 l/m 0 min 0 min 0 W/m 0,0 km/h (0 Bft) 97,87 %
20.07.2020 05:48 15,5 C 13,9 C 13,9 C 95 % 1017,9 hPa 0,0 l/m 0 min 0 min 0 W/m 3,2 km/h (1 Bft) 95,74 %
20.07.2020 05:50 15,5 C 13,9 C 13,9 C 95 % 1017,9 hPa 0,0 l/m 0 min 0 min 0 W/m 3,2 km/h (1 Bft) 97,87 %
20.07.2020 05:52 15,4 C 13,9 C 13,9 C 95 % 1017,9 hPa 0,0 l/m 0 min 0 min 0 W/m 6,4 km/h (2 Bft) 97,87 %
20.07.2020 05:54 15,4 C 13,9 C 13,9 C 95 % 1017,9 hPa 0,0 l/m 0 min 0 min 0 W/m 6,4 km/h (2 Bft) 97,83 %
20.07.2020 05:56 15,4 C 13,9 C 13,9 C 95 % 1018,0 hPa 0,0 l/m 0 min 0 min 0 W/m 0,0 km/h (0 Bft) 97,87 %
20.07.2020 05:58 15,4 C 13,9 C 13,9 C 95 % 1018,0 hPa 0,0 l/m 0 min 0 min 0 W/m 3,2 km/h (1 Bft) 97,87 %
20.07.2020 06:00 15,4 C 13,9 C 13,9 C 95 % 1018,0 hPa 0,0 l/m 0 min 0 min 0 W/m 3,2 km/h (1 Bft) 95,74 %
20.07.2020 06:02 15,4 C 13,9 C 13,9 C 95 % 1018,0 hPa 0,0 l/m 0 min 2 min 0 W/m 3,2 km/h (1 Bft) 95,74 %
20.07.2020 06:04 15,4 C 13,9 C 13,9 C 95 % 1018,1 hPa 0,0 l/m 0 min 2 min 0 W/m 0,0 km/h (0 Bft) 100,00 %
20.07.2020 06:08 15,3 C 13,9 C 13,9 C 95 % 1018,0 hPa 0,0 l/m 0 min 4 min 1 W/m 12,9 km/h (3 Bft) 98,92 %
20.07.2020 06:10 15,3 C 13,9 C 13,9 C 95 % 1018,0 hPa 0,0 l/m 0 min 2 min 5 W/m 0,0 km/h (0 Bft) 100,00 %
20.07.2020 06:12 15,3 C 13,9 C 13,9 C 96 % 1018,0 hPa 0,0 l/m 0 min 2 min 3 W/m 3,2 km/h (1 Bft) 97,87 %
20.07.2020 06:14 15,3 C 13,9 C 13,9 C 96 % 1018,0 hPa 0,0 l/m 0 min 2 min 3 W/m 0,0 km/h (0 Bft) 100,00 %
20.07.2020 06:16 15,3 C 13,9 C 13,9 C 96 % 1017,9 hPa 0,0 l/m 0 min 2 min 5 W/m 0,0 km/h (0 Bft) 97,87 %
20.07.2020 06:18 15,3 C 13,9 C 13,9 C 96 % 1017,9 hPa 0,0 l/m 0 min 2 min 5 W/m 0,0 km/h (0 Bft) 97,83 %
20.07.2020 06:20 15,3 C 13,9 C 13,9 C 96 % 1018,0 hPa 0,0 l/m 0 min 0 min 7 W/m 0,0 km/h (0 Bft) 97,87 %
20.07.2020 06:22 15,3 C 13,9 C 13,9 C 96 % 1017,9 hPa 0,0 l/m 0 min 0 min 10 W/m 0,0 km/h (0 Bft) 100,00 %
20.07.2020 06:24 15,3 C 13,9 C 13,9 C 96 % 1017,9 hPa 0,0 l/m 0 min 0 min 11 W/m 0,0 km/h (0 Bft) 100,00 %
20.07.2020 06:26 15,3 C 13,9 C 13,9 C 96 % 1017,9 hPa 0,0 l/m 0 min 0 min 12 W/m 0,0 km/h (0 Bft) 100,00 %
20.07.2020 06:28 15,3 C 13,9 C 13,9 C 96 % 1018,0 hPa 0,0 l/m 0 min 2 min 15 W/m 3,2 km/h (1 Bft) 100,00 %
20.07.2020 06:30 15,3 C 13,9 C 13,9 C 96 % 1018,0 hPa 0,0 l/m 0 min 2 min 17 W/m 3,2 km/h (1 Bft) 100,00 %
20.07.2020 06:32 15,3 C 13,9 C 13,9 C 96 % 1018,1 hPa 0,0 l/m 0 min 0 min 18 W/m 3,2 km/h (1 Bft) 100,00 %
20.07.2020 06:34 15,3 C 13,9 C 13,9 C 96 % 1018,1 hPa 0,0 l/m 0 min 0 min 17 W/m 3,2 km/h (1 Bft) 97,87 %
20.07.2020 06:36 15,3 C 13,9 C 13,9 C 96 % 1018,2 hPa 0,0 l/m 0 min 0 min 13 W/m 0,0 km/h (0 Bft) 100,00 %
20.07.2020 06:38 15,2 C 13,9 C 13,9 C 96 % 1018,2 hPa 0,0 l/m 0 min 0 min 10 W/m 9,7 km/h (2 Bft) 97,87 %
20.07.2020 06:40 15,3 C 13,9 C 13,9 C 96 % 1018,3 hPa 0,0 l/m 0 min 0 min 9 W/m 0,0 km/h (0 Bft) 97,87 %
20.07.2020 06:42 15,2 C 13,9 C 13,9 C 96 % 1018,4 hPa 0,0 l/m 0 min 0 min 12 W/m 3,2 km/h (1 Bft) 97,83 %
20.07.2020 06:44 15,2 C 13,9 C 13,9 C 96 % 1018,3 hPa 0,0 l/m 0 min 0 min 15 W/m 6,4 km/h (2 Bft) 100,00 %
20.07.2020 06:46 15,2 C 13,9 C 13,9 C 96 % 1018,3 hPa 0,0 l/m 0 min 0 min 15 W/m 0,0 km/h (0 Bft) 100,00 %
20.07.2020 06:48 15,2 C 13,9 C 13,9 C 96 % 1018,4 hPa 0,0 l/m 0 min 0 min 16 W/m 3,2 km/h (1 Bft) 97,87 %
20.07.2020 06:50 15,2 C 13,9 C 13,9 C 96 % 1018,4 hPa 0,0 l/m 0 min 0 min 15 W/m 3,2 km/h (1 Bft) 95,12 %
20.07.2020 06:52 15,2 C 13,9 C 13,9 C 96 % 1018,4 hPa 0,0 l/m 0 min 0 min 11 W/m 0,0 km/h (0 Bft) 97,87 %
20.07.2020 06:54 15,2 C 13,9 C 13,9 C 96 % 1018,4 hPa 0,0 l/m 0 min 0 min 10 W/m 3,2 km/h (1 Bft) 97,87 %
20.07.2020 06:56 15,2 C 13,9 C 13,9 C 97 % 1018,4 hPa 0,0 l/m 0 min 0 min 9 W/m 0,0 km/h (0 Bft) 97,87 %
20.07.2020 06:58 15,2 C 13,9 C 13,9 C 97 % 1018,3 hPa 0,0 l/m 0 min 0 min 11 W/m 3,2 km/h (1 Bft) 97,83 %
20.07.2020 07:00 15,2 C 13,9 C 13,9 C 97 % 1018,4 hPa 0,0 l/m 0 min 0 min 11 W/m 0,0 km/h (0 Bft) 97,87 %
20.07.2020 07:02 15,2 C 13,9 C 13,9 C 97 % 1018,4 hPa 0,0 l/m 0 min 0 min 12 W/m 0,0 km/h (0 Bft) 97,87 %
20.07.2020 07:04 15,1 C 13,9 C 13,9 C 97 % 1018,4 hPa 0,0 l/m 0 min 0 min 13 W/m 0,0 km/h (0 Bft) 97,87 %
20.07.2020 07:06 15,1 C 13,9 C 13,9 C 97 % 1018,5 hPa 0,0 l/m 0 min 0 min 14 W/m 3,2 km/h (1 Bft) 97,87 %
20.07.2020 07:08 15,1 C 13,9 C 13,9 C 97 % 1018,4 hPa 0,0 l/m 0 min 0 min 16 W/m 3,2 km/h (1 Bft) 97,87 %
20.07.2020 07:10 15,1 C 13,9 C 13,9 C 97 % 1018,4 hPa 0,0 l/m 0 min 0 min 20 W/m 0,0 km/h (0 Bft) 97,83 %
20.07.2020 07:12 15,1 C 13,9 C 13,9 C 97 % 1018,4 hPa 0,0 l/m 0 min 0 min 24 W/m 0,0 km/h (0 Bft) 97,87 %
20.07.2020 07:14 15,1 C 13,9 C 13,9 C 97 % 1018,4 hPa 0,0 l/m 0 min 0 min 25 W/m 0,0 km/h (0 Bft) 95,74 %
20.07.2020 07:16 15,1 C 13,9 C 13,9 C 97 % 1018,3 hPa 0,0 l/m 0 min 0 min 28 W/m 0,0 km/h (0 Bft) 95,74 %
20.07.2020 07:18 15,1 C 13,9 C 13,9 C 97 % 1018,3 hPa 0,0 l/m 0 min 0 min 33 W/m 0,0 km/h (0 Bft) 97,87 %
20.07.2020 07:20 15,1 C 13,9 C 13,9 C 97 % 1018,3 hPa 0,0 l/m 0 min 0 min 32 W/m 3,2 km/h (1 Bft) 97,87 %
20.07.2020 07:22 15,1 C 13,9 C 13,9 C 97 % 1018,3 hPa 0,0 l/m 0 min 0 min 32 W/m 0,0 km/h (0 Bft) 95,65 %
20.07.2020 07:24 15,1 C 13,9 C 13,9 C 97 % 1018,4 hPa 0,0 l/m 0 min 0 min 36 W/m 0,0 km/h (0 Bft) 97,87 %
20.07.2020 07:26 15,1 C 13,9 C 13,9 C 97 % 1018,4 hPa 0,0 l/m 0 min 0 min 40 W/m 0,0 km/h (0 Bft) 95,74 %
20.07.2020 07:28 15,0 C 13,9 C 13,9 C 97 % 1018,4 hPa 0,0 l/m 0 min 0 min 43 W/m 0,0 km/h (0 Bft) 97,87 %
20.07.2020 07:30 15,0 C 13,9 C 13,9 C 97 % 1018,4 hPa 0,0 l/m 0 min 0 min 47 W/m 0,0 km/h (0 Bft) 97,87 %
20.07.2020 07:32 15,0 C 13,9 C 13,9 C 97 % 1018,4 hPa 0,0 l/m 0 min 0 min 46 W/m 3,2 km/h (1 Bft) 97,83 %
20.07.2020 07:34 15,0 C 13,9 C 13,9 C 97 % 1018,4 hPa 0,0 l/m 0 min 0 min 41 W/m 0,0 km/h (0 Bft) 97,87 %
20.07.2020 07:36 15,0 C 13,9 C 13,9 C 97 % 1018,4 hPa 0,0 l/m 0 min 0 min 36 W/m 0,0 km/h (0 Bft) 97,87 %
20.07.2020 07:38 15,0 C 13,9 C 14,4 C 97 % 1018,5 hPa 0,0 l/m 0 min 0 min 34 W/m 0,0 km/h (0 Bft) 95,74 %
20.07.2020 07:40 15,0 C 13,9 C 14,4 C 97 % 1018,5 hPa 0,0 l/m 0 min 0 min 32 W/m 3,2 km/h (1 Bft) 97,87 %
20.07.2020 07:42 15,0 C 13,9 C 13,9 C 97 % 1018,5 hPa 0,0 l/m 0 min 0 min 33 W/m 0,0 km/h (0 Bft) 100,00 %
20.07.2020 07:44 15,0 C 13,9 C 13,9 C 97 % 1018,5 hPa 0,0 l/m 0 min 0 min 37 W/m 0,0 km/h (0 Bft) 100,00 %
20.07.2020 07:46 14,9 C 13,9 C 13,9 C 97 % 1018,6 hPa 0,0 l/m 0 min 0 min 43 W/m 0,0 km/h (0 Bft) 100,00 %
20.07.2020 07:48 14,9 C 13,9 C 14,4 C 97 % 1018,5 hPa 0,0 l/m 0 min 0 min 47 W/m 0,0 km/h (0 Bft) 100,00 %
20.07.2020 07:50 14,9 C 13,9 C 14,4 C 97 % 1018,5 hPa 0,0 l/m 0 min 0 min 47 W/m 0,0 km/h (0 Bft) 100,00 %
20.07.2020 07:52 14,9 C 13,9 C 14,4 C 97 % 1018,6 hPa 0,0 l/m 0 min 0 min 41 W/m 3,2 km/h (1 Bft) 100,00 %
20.07.2020 07:54 14,9 C 13,9 C 13,9 C 97 % 1018,6 hPa 0,0 l/m 0 min 0 min 33 W/m 6,4 km/h (2 Bft) 100,00 %
20.07.2020 07:56 14,9 C 13,9 C 13,9 C 97 % 1018,6 hPa 0,0 l/m 0 min 0 min 28 W/m 9,7 km/h (2 Bft) 100,00 %
20.07.2020 07:58 14,9 C 13,9 C 13,9 C 97 % 1018,6 hPa 0,0 l/m 0 min 0 min 29 W/m 0,0 km/h (0 Bft) 100,00 %
20.07.2020 08:00 14,9 C 13,9 C 13,9 C 97 % 1018,6 hPa 0,0 l/m 0 min 0 min 41 W/m 3,2 km/h (1 Bft) 100,00 %
20.07.2020 08:02 14,9 C 13,9 C 13,9 C 97 % 1018,6 hPa 0,0 l/m 0 min 0 min 68 W/m 6,4 km/h (2 Bft) 97,87 %
20.07.2020 08:04 14,9 C 14,4 C 14,4 C 97 % 1018,6 hPa 0,0 l/m 0 min 0 min 83 W/m 3,2 km/h (1 Bft) 100,00 %
20.07.2020 08:06 14,9 C 14,4 C 14,4 C 97 % 1018,7 hPa 0,0 l/m 0 min 0 min 91 W/m 6,4 km/h (2 Bft) 95,74 %
20.07.2020 08:08 14,9 C 14,4 C 14,4 C 97 % 1018,7 hPa 0,0 l/m 0 min 0 min 98 W/m 3,2 km/h (1 Bft) 97,83 %
20.07.2020 08:10 14,9 C 14,4 C 14,4 C 97 % 1018,6 hPa 0,0 l/m 0 min 0 min 106 W/m 0,0 km/h (0 Bft) 97,87 %
20.07.2020 08:12 15,0 C 14,4 C 15,0 C 97 % 1018,7 hPa 0,0 l/m 0 min 0 min 111 W/m 0,0 km/h (0 Bft) 95,74 %
20.07.2020 08:14 15,0 C 14,4 C 15,0 C 97 % 1018,7 hPa 0,0 l/m 0 min 0 min 110 W/m 3,2 km/h (1 Bft) 95,74 %
20.07.2020 08:16 15,0 C 14,4 C 15,0 C 97 % 1018,7 hPa 0,0 l/m 0 min 0 min 104 W/m 3,2 km/h (1 Bft) 95,74 %
20.07.2020 08:18 15,0 C 14,4 C 15,0 C 97 % 1018,7 hPa 0,0 l/m 0 min 0 min 96 W/m 6,4 km/h (2 Bft) 95,74 %
20.07.2020 08:20 15,1 C 14,4 C 15,0 C 97 % 1018,7 hPa 0,0 l/m 0 min 0 min 82 W/m 3,2 km/h (1 Bft) 93,48 %
20.07.2020 08:22 15,1 C 14,4 C 15,0 C 97 % 1018,8 hPa 0,0 l/m 0 min 0 min 77 W/m 6,4 km/h (2 Bft) 93,62 %
20.07.2020 08:24 15,1 C 14,4 C 15,0 C 97 % 1018,7 hPa 0,0 l/m 0 min 0 min 104 W/m 6,4 km/h (2 Bft) 93,62 %
20.07.2020 08:26 15,1 C 15,0 C 15,0 C 97 % 1018,7 hPa 0,0 l/m 0 min 0 min 140 W/m 6,4 km/h (2 Bft) 95,74 %
20.07.2020 08:28 15,1 C 15,0 C 15,0 C 97 % 1018,7 hPa 0,0 l/m 0 min 0 min 142 W/m 6,4 km/h (2 Bft) 95,74 %
20.07.2020 08:30 15,1 C 15,0 C 15,6 C 97 % 1018,8 hPa 0,0 l/m 0 min 0 min 145 W/m 3,2 km/h (1 Bft) 95,92 %
20.07.2020 08:32 15,2 C 15,6 C 15,6 C 97 % 1018,8 hPa 0,0 l/m 0 min 0 min 167 W/m 0,0 km/h (0 Bft) 95,74 %
20.07.2020 08:34 15,2 C 16,7 C 16,1 C 97 % 1018,9 hPa 0,0 l/m 0 min 0 min 174 W/m 0,0 km/h (0 Bft) 95,74 %
20.07.2020 08:36 15,3 C 16,1 C 16,1 C 97 % 1018,9 hPa 0,0 l/m 0 min 0 min 148 W/m 3,2 km/h (1 Bft) 95,74 %
20.07.2020 08:38 15,3 C 16,1 C 16,1 C 97 % 1018,9 hPa 0,0 l/m 0 min 0 min 130 W/m 6,4 km/h (2 Bft) 93,62 %
20.07.2020 08:40 15,4 C 15,6 C 16,1 C 97 % 1018,9 hPa 0,0 l/m 0 min 0 min 124 W/m 6,4 km/h (2 Bft) 95,74 %
20.07.2020 08:42 15,4 C 15,6 C 16,1 C 97 % 1019,0 hPa 0,0 l/m 0 min 0 min 121 W/m 0,0 km/h (0 Bft) 93,48 %
20.07.2020 08:44 15,4 C 15,6 C 16,1 C 97 % 1019,0 hPa 0,0 l/m 0 min 0 min 128 W/m 6,4 km/h (2 Bft) 95,74 %
20.07.2020 08:46 15,4 C 15,6 C 16,1 C 97 % 1019,0 hPa 0,0 l/m 0 min 0 min 129 W/m 6,4 km/h (2 Bft) 95,74 %
20.07.2020 08:48 15,5 C 15,6 C 16,1 C 97 % 1019,0 hPa 0,0 l/m 0 min 0 min 112 W/m 9,7 km/h (2 Bft) 95,74 %
20.07.2020 08:50 15,5 C 15,6 C 16,1 C 97 % 1019,0 hPa 0,0 l/m 0 min 0 min 110 W/m 3,2 km/h (1 Bft) 95,74 %
20.07.2020 08:52 15,6 C 15,6 C 16,1 C 97 % 1019,0 hPa 0,0 l/m 0 min 0 min 121 W/m 9,7 km/h (2 Bft) 97,87 %
20.07.2020 08:54 15,6 C 15,6 C 16,1 C 97 % 1019,1 hPa 0,0 l/m 0 min 0 min 133 W/m 3,2 km/h (1 Bft) 97,83 %
20.07.2020 08:56 15,6 C 15,6 C 16,1 C 97 % 1019,1 hPa 0,0 l/m 0 min 0 min 153 W/m 6,4 km/h (2 Bft) 95,74 %
20.07.2020 08:58 15,6 C 15,6 C 16,1 C 97 % 1019,1 hPa 0,0 l/m 0 min 0 min 168 W/m 3,2 km/h (1 Bft) 97,87 %
20.07.2020 09:00 15,6 C 15,6 C 16,1 C 96 % 1019,1 hPa 0,0 l/m 0 min 0 min 173 W/m 3,2 km/h (1 Bft) 97,87 %
20.07.2020 09:02 15,6 C 15,6 C 16,1 C 96 % 1019,1 hPa 0,0 l/m 0 min 0 min 180 W/m 12,9 km/h (3 Bft) 97,87 %
20.07.2020 09:04 15,7 C 16,1 C 16,7 C 96 % 1019,2 hPa 0,0 l/m 0 min 0 min 194 W/m 3,2 km/h (1 Bft) 97,87 %
20.07.2020 09:06 15,7 C 16,1 C 16,7 C 96 % 1019,1 hPa 0,0 l/m 0 min 0 min 190 W/m 3,2 km/h (1 Bft) 95,65 %
20.07.2020 09:08 15,8 C 16,7 C 16,7 C 96 % 1019,1 hPa 0,0 l/m 0 min 0 min 191 W/m 0,0 km/h (0 Bft) 95,74 %
20.07.2020 09:10 15,8 C 16,1 C 16,7 C 96 % 1019,1 hPa 0,0 l/m 0 min 0 min 194 W/m 12,9 km/h (3 Bft) 97,87 %
20.07.2020 09:12 15,9 C 16,7 C 16,7 C 96 % 1019,1 hPa 0,0 l/m 0 min 0 min 215 W/m 3,2 km/h (1 Bft) 97,87 %
20.07.2020 09:14 15,9 C 16,7 C 17,2 C 96 % 1019,1 hPa 0,0 l/m 0 min 0 min 229 W/m 3,2 km/h (1 Bft) 100,00 %
20.07.2020 09:16 16,0 C 16,1 C 17,2 C 95 % 1019,1 hPa 0,0 l/m 0 min 0 min 220 W/m 6,4 km/h (2 Bft) 100,00 %
20.07.2020 09:18 16,1 C 16,7 C 17,2 C 95 % 1019,1 hPa 0,0 l/m 0 min 0 min 203 W/m 6,4 km/h (2 Bft) 100,00 %
20.07.2020 09:20 16,1 C 16,1 C 17,2 C 95 % 1019,1 hPa 0,0 l/m 0 min 0 min 181 W/m 6,4 km/h (2 Bft) 100,00 %
20.07.2020 09:22 16,1 C 16,7 C 17,2 C 95 % 1019,1 hPa 0,0 l/m 0 min 0 min 163 W/m 6,4 km/h (2 Bft) 97,87 %
20.07.2020 09:24 16,2 C 16,1 C 17,2 C 94 % 1019,1 hPa 0,0 l/m 0 min 0 min 177 W/m 9,7 km/h (2 Bft) 100,00 %
20.07.2020 09:26 16,2 C 16,7 C 17,2 C 94 % 1019,2 hPa 0,0 l/m 0 min 0 min 231 W/m 6,4 km/h (2 Bft) 97,87 %
20.07.2020 09:28 16,2 C 16,7 C 17,8 C 94 % 1019,2 hPa 0,0 l/m 2 min 0 min 268 W/m 9,7 km/h (2 Bft) 100,00 %
20.07.2020 09:30 16,3 C 18,3 C 18,9 C 93 % 1019,2 hPa 0,0 l/m 2 min 0 min 301 W/m 6,4 km/h (2 Bft) 97,83 %
20.07.2020 09:32 16,5 C 20,6 C 21,1 C 93 % 1019,2 hPa 0,0 l/m 2 min 0 min 302 W/m 6,4 km/h (2 Bft) 95,74 %
20.07.2020 09:34 16,7 C 21,7 C 21,7 C 93 % 1019,2 hPa 0,0 l/m 2 min 0 min 302 W/m 16,1 km/h (3 Bft) 100,00 %
20.07.2020 09:36 16,9 C 21,7 C 22,2 C 92 % 1019,1 hPa 0,0 l/m 2 min 0 min 288 W/m 12,9 km/h (3 Bft) 97,87 %
20.07.2020 09:38 17,0 C 20,6 C 21,7 C 92 % 1019,1 hPa 0,0 l/m 2 min 0 min 328 W/m 6,4 km/h (2 Bft) 97,87 %
20.07.2020 09:40 17,1 C 21,1 C 21,1 C 91 % 1019,2 hPa 0,0 l/m 2 min 0 min 357 W/m 9,7 km/h (2 Bft) 100,00 %
20.07.2020 09:42 17,2 C 20,6 C 21,1 C 90 % 1019,2 hPa 0,0 l/m 2 min 0 min 364 W/m 6,4 km/h (2 Bft) 95,74 %
20.07.2020 09:44 17,3 C 21,1 C 21,1 C 90 % 1019,2 hPa 0,0 l/m 2 min 0 min 363 W/m 6,4 km/h (2 Bft) 97,87 %
20.07.2020 09:46 17,5 C 21,7 C 21,7 C 90 % 1019,2 hPa 0,0 l/m 2 min 0 min 419 W/m 6,4 km/h (2 Bft) 95,74 %
20.07.2020 09:48 17,6 C 21,1 C 21,1 C 89 % 1019,2 hPa 0,0 l/m 2 min 0 min 333 W/m 6,4 km/h (2 Bft) 100,00 %
20.07.2020 09:50 17,7 C 20,6 C 20,6 C 88 % 1019,3 hPa 0,0 l/m 0 min 0 min 232 W/m 16,1 km/h (3 Bft) 100,00 %
20.07.2020 09:52 17,8 C 19,4 C 20,0 C 88 % 1019,3 hPa 0,0 l/m 0 min 0 min 235 W/m 6,4 km/h (2 Bft) 97,83 %
20.07.2020 09:54 17,8 C 20,0 C 19,4 C 87 % 1019,3 hPa 0,0 l/m 0 min 0 min 265 W/m 6,4 km/h (2 Bft) 97,87 %
20.07.2020 09:56 17,9 C 20,6 C 20,6 C 87 % 1019,3 hPa 0,0 l/m 2 min 0 min 362 W/m 6,4 km/h (2 Bft) 97,87 %
20.07.2020 09:58 17,9 C 20,6 C 20,6 C 86 % 1019,4 hPa 0,0 l/m 2 min 0 min 354 W/m 6,4 km/h (2 Bft) 95,74 %
20.07.2020 10:00 18,1 C 20,6 C 20,6 C 86 % 1019,4 hPa 0,0 l/m 2 min 0 min 305 W/m 9,7 km/h (2 Bft) 97,87 %
20.07.2020 10:02 18,1 C 21,1 C 21,1 C 85 % 1019,4 hPa 0,0 l/m 2 min 0 min 374 W/m 6,4 km/h (2 Bft) 97,87 %
20.07.2020 10:04 18,1 C 20,6 C 20,6 C 85 % 1019,5 hPa 0,0 l/m 2 min 0 min 307 W/m 9,7 km/h (2 Bft) 95,65 %
20.07.2020 10:06 18,2 C 20,6 C 20,6 C 84 % 1019,5 hPa 0,0 l/m 2 min 0 min 339 W/m 9,7 km/h (2 Bft) 97,87 %
20.07.2020 10:08 18,2 C 20,0 C 20,0 C 83 % 1019,5 hPa 0,0 l/m 2 min 0 min 315 W/m 9,7 km/h (2 Bft) 97,87 %
20.07.2020 10:10 18,2 C 20,0 C 20,0 C 82 % 1019,5 hPa 0,0 l/m 2 min 0 min 308 W/m 6,4 km/h (2 Bft) 95,74 %
20.07.2020 10:12 18,3 C 20,0 C 19,4 C 82 % 1019,5 hPa 0,0 l/m 0 min 0 min 282 W/m 3,2 km/h (1 Bft) 95,74 %
20.07.2020 10:14 18,3 C 20,0 C 19,4 C 81 % 1019,5 hPa 0,0 l/m 0 min 0 min 267 W/m 3,2 km/h (1 Bft) 97,87 %
20.07.2020 10:16 18,3 C 19,4 C 18,9 C 81 % 1019,5 hPa 0,0 l/m 0 min 0 min 259 W/m 6,4 km/h (2 Bft) 97,83 %
20.07.2020 10:18 18,4 C 19,4 C 18,9 C 81 % 1019,5 hPa 0,0 l/m 0 min 0 min 270 W/m 3,2 km/h (1 Bft) 97,87 %
20.07.2020 10:20 18,4 C 20,0 C 18,9 C 81 % 1019,5 hPa 0,0 l/m 0 min 0 min 297 W/m 6,4 km/h (2 Bft) 97,87 %
20.07.2020 10:22 18,4 C 20,0 C 19,4 C 81 % 1019,5 hPa 0,0 l/m 0 min 0 min 301 W/m 6,4 km/h (2 Bft) 93,62 %
20.07.2020 10:24 18,5 C 20,6 C 19,4 C 81 % 1019,5 hPa 0,0 l/m 2 min 0 min 342 W/m 3,2 km/h (1 Bft) 97,87 %
20.07.2020 10:26 18,6 C 20,6 C 19,4 C 81 % 1019,5 hPa 0,0 l/m 2 min 0 min 351 W/m 6,4 km/h (2 Bft) 97,87 %
20.07.2020 10:28 18,6 C 21,1 C 20,0 C 81 % 1019,6 hPa 0,0 l/m 2 min 0 min 348 W/m 3,2 km/h (1 Bft) 95,65 %
20.07.2020 10:30 18,7 C 21,1 C 20,0 C 81 % 1019,6 hPa 0,0 l/m 2 min 0 min 365 W/m 12,9 km/h (3 Bft) 97,87 %
20.07.2020 10:32 18,7 C 21,1 C 20,6 C 80 % 1019,5 hPa 0,0 l/m 2 min 0 min 414 W/m 6,4 km/h (2 Bft) 95,74 %
20.07.2020 10:34 18,8 C 22,2 C 21,1 C 80 % 1019,6 hPa 0,0 l/m 2 min 0 min 443 W/m 9,7 km/h (2 Bft) 97,87 %
20.07.2020 10:36 18,9 C 21,7 C 21,1 C 80 % 1019,6 hPa 0,0 l/m 2 min 0 min 387 W/m 3,2 km/h (1 Bft) 97,87 %
20.07.2020 10:38 18,9 C 21,1 C 21,1 C 80 % 1019,6 hPa 0,0 l/m 2 min 0 min 426 W/m 12,9 km/h (3 Bft) 97,83 %
20.07.2020 10:40 18,9 C 21,1 C 20,6 C 78 % 1019,6 hPa 0,0 l/m 0 min 0 min 298 W/m 6,4 km/h (2 Bft) 95,74 %
20.07.2020 10:42 18,9 C 20,0 C 20,0 C 77 % 1019,6 hPa 0,0 l/m 0 min 0 min 205 W/m 12,9 km/h (3 Bft) 93,62 %
20.07.2020 10:44 18,9 C 19,4 C 19,4 C 76 % 1019,7 hPa 0,0 l/m 0 min 0 min 217 W/m 16,1 km/h (3 Bft) 95,74 %
20.07.2020 10:46 18,9 C 19,4 C 19,4 C 76 % 1019,7 hPa 0,0 l/m 0 min 0 min 252 W/m 9,7 km/h (2 Bft) 93,62 %
20.07.2020 10:48 18,9 C 20,6 C 19,4 C 78 % 1019,7 hPa 0,0 l/m 2 min 0 min 371 W/m 6,4 km/h (2 Bft) 95,74 %
20.07.2020 10:50 18,9 C 21,1 C 20,0 C 77 % 1019,7 hPa 0,0 l/m 2 min 0 min 395 W/m 6,4 km/h (2 Bft) 95,65 %
20.07.2020 10:52 18,9 C 21,1 C 20,0 C 76 % 1019,8 hPa 0,0 l/m 2 min 0 min 407 W/m 9,7 km/h (2 Bft) 94,00 %
20.07.2020 10:54 19,0 C 21,7 C 20,0 C 77 % 1019,8 hPa 0,0 l/m 2 min 0 min 383 W/m 3,2 km/h (1 Bft) 95,74 %
20.07.2020 10:56 19,1 C 21,1 C 20,0 C 77 % 1019,8 hPa 0,0 l/m 2 min 0 min 362 W/m 9,7 km/h (2 Bft) 95,74 %
20.07.2020 10:58 19,1 C 21,7 C 20,0 C 77 % 1019,8 hPa 0,0 l/m 2 min 0 min 396 W/m 6,4 km/h (2 Bft) 93,48 %
20.07.2020 11:00 19,2 C 22,2 C 20,6 C 77 % 1019,7 hPa 0,0 l/m 2 min 0 min 499 W/m 12,9 km/h (3 Bft) 95,74 %
20.07.2020 11:02 19,3 C 22,8 C 21,1 C 77 % 1019,7 hPa 0,0 l/m 2 min 0 min 507 W/m 6,4 km/h (2 Bft) 95,74 %
20.07.2020 11:04 19,3 C 22,2 C 20,6 C 75 % 1019,8 hPa 0,0 l/m 0 min 0 min 322 W/m 9,7 km/h (2 Bft) 97,92 %
20.07.2020 11:06 19,3 C 21,1 C 20,0 C 76 % 1019,8 hPa 0,0 l/m 0 min 0 min 178 W/m 3,2 km/h (1 Bft) 93,62 %
20.07.2020 11:08 19,4 C 20,0 C 19,4 C 76 % 1019,9 hPa 0,0 l/m 0 min 0 min 122 W/m 6,4 km/h (2 Bft) 97,83 %
20.07.2020 11:10 19,4 C 19,4 C 18,9 C 75 % 1019,8 hPa 0,0 l/m 0 min 0 min 109 W/m 6,4 km/h (2 Bft) 95,74 %
20.07.2020 11:12 19,4 C 18,9 C 18,3 C 75 % 1019,9 hPa 0,0 l/m 0 min 0 min 118 W/m 3,2 km/h (1 Bft) 95,74 %
20.07.2020 11:14 19,3 C 18,9 C 18,3 C 75 % 1019,9 hPa 0,0 l/m 0 min 0 min 125 W/m 3,2 km/h (1 Bft) 95,74 %
20.07.2020 11:16 19,3 C 18,9 C 18,3 C 76 % 1019,9 hPa 0,0 l/m 0 min 0 min 146 W/m 3,2 km/h (1 Bft) 97,87 %
20.07.2020 11:18 19,3 C 18,3 C 17,8 C 75 % 1019,9 hPa 0,0 l/m 0 min 0 min 164 W/m 6,4 km/h (2 Bft) 97,87 %
20.07.2020 11:20 19,2 C 18,9 C 18,3 C 75 % 1019,9 hPa 0,0 l/m 0 min 0 min 179 W/m 6,4 km/h (2 Bft) 95,65 %
20.07.2020 11:22 19,1 C 18,9 C 18,3 C 76 % 1019,9 hPa 0,0 l/m 0 min 0 min 235 W/m 6,4 km/h (2 Bft) 95,74 %
20.07.2020 11:24 19,1 C 19,4 C 18,9 C 76 % 1020,0 hPa 0,0 l/m 0 min 0 min 315 W/m 6,4 km/h (2 Bft) 95,74 %
20.07.2020 11:26 19,1 C 20,6 C 19,4 C 76 % 1019,9 hPa 0,0 l/m 0 min 0 min 366 W/m 3,2 km/h (1 Bft) 95,74 %
20.07.2020 11:28 19,1 C 21,1 C 20,0 C 76 % 1019,9 hPa 0,0 l/m 0 min 0 min 356 W/m 3,2 km/h (1 Bft) 97,87 %
20.07.2020 11:30 19,2 C 21,7 C 20,0 C 77 % 1020,0 hPa 0,0 l/m 0 min 0 min 366 W/m 6,4 km/h (2 Bft) 97,87 %
20.07.2020 11:32 19,2 C 21,7 C 20,0 C 77 % 1020,0 hPa 0,0 l/m 0 min 0 min 365 W/m 6,4 km/h (2 Bft) 95,65 %
20.07.2020 11:34 19,2 C 21,1 C 20,0 C 74 % 1020,0 hPa 0,0 l/m 2 min 0 min 389 W/m 16,1 km/h (3 Bft) 95,74 %
20.07.2020 11:36 19,3 C 21,7 C 20,0 C 75 % 1020,0 hPa 0,0 l/m 2 min 0 min 383 W/m 9,7 km/h (2 Bft) 97,87 %
20.07.2020 11:38 19,3 C 21,7 C 20,0 C 74 % 1020,1 hPa 0,0 l/m 0 min 0 min 368 W/m 6,4 km/h (2 Bft) 97,87 %
20.07.2020 11:40 19,4 C 21,7 C 20,0 C 74 % 1020,1 hPa 0,0 l/m 0 min 0 min 361 W/m 3,2 km/h (1 Bft) 97,87 %
20.07.2020 11:42 19,4 C 21,7 C 20,0 C 74 % 1020,3 hPa 0,0 l/m 0 min 0 min 343 W/m 6,4 km/h (2 Bft) 95,74 %
20.07.2020 11:44 19,4 C 21,1 C 20,0 C 73 % 1020,2 hPa 0,0 l/m 0 min 0 min 337 W/m 6,4 km/h (2 Bft) 97,83 %
20.07.2020 11:46 19,5 C 21,7 C 20,0 C 74 % 1020,3 hPa 0,0 l/m 0 min 0 min 327 W/m 6,4 km/h (2 Bft) 97,87 %
20.07.2020 11:48 19,6 C 21,1 C 20,0 C 74 % 1020,3 hPa 0,0 l/m 0 min 0 min 342 W/m 9,7 km/h (2 Bft) 97,87 %
20.07.2020 11:50 19,6 C 21,1 C 20,0 C 73 % 1020,3 hPa 0,0 l/m 0 min 0 min 354 W/m 9,7 km/h (2 Bft) 97,87 %
20.07.2020 11:52 19,6 C 21,7 C 20,6 C 73 % 1020,3 hPa 0,0 l/m 0 min 0 min 370 W/m 6,4 km/h (2 Bft) 97,87 %
20.07.2020 11:54 19,7 C 22,2 C 20,6 C 73 % 1020,3 hPa 0,0 l/m 2 min 0 min 405 W/m 9,7 km/h (2 Bft) 97,87 %
20.07.2020 11:56 19,7 C 25,0 C 21,1 C 74 % 1020,3 hPa 0,0 l/m 2 min 0 min 427 W/m 6,4 km/h (2 Bft) 95,65 %
20.07.2020 11:58 19,9 C 27,2 C 21,7 C 74 % 1020,3 hPa 0,0 l/m 2 min 0 min 1065 W/m 6,4 km/h (2 Bft) 97,87 %
20.07.2020 12:00 20,2 C 27,8 C 22,2 C 74 % 1020,3 hPa 0,0 l/m 2 min 0 min 1093 W/m 6,4 km/h (2 Bft) 95,74 %
20.07.2020 12:02 20,4 C 28,3 C 22,8 C 73 % 1020,3 hPa 0,0 l/m 2 min 0 min 800 W/m 6,4 km/h (2 Bft) 97,87 %
20.07.2020 12:04 20,7 C 28,3 C 23,3 C 73 % 1020,3 hPa 0,0 l/m 2 min 0 min 802 W/m 9,7 km/h (2 Bft) 97,87 %
20.07.2020 12:08 21,1 C 25,0 C 22,8 C 69 % 1020,3 hPa 0,0 l/m 4 min 0 min 736 W/m 9,7 km/h (2 Bft) 96,59 %
20.07.2020 12:10 21,2 C 23,9 C 22,2 C 67 % 1020,3 hPa 0,0 l/m 2 min 0 min 413 W/m 16,1 km/h (3 Bft) 100,00 %
20.07.2020 12:12 21,3 C 26,1 C 22,2 C 69 % 1020,4 hPa 0,0 l/m 2 min 0 min 895 W/m 6,4 km/h (2 Bft) 97,87 %
20.07.2020 12:14 21,4 C 25,6 C 22,2 C 69 % 1020,4 hPa 0,0 l/m 2 min 0 min 572 W/m 6,4 km/h (2 Bft) 100,00 %
20.07.2020 12:16 21,4 C 26,7 C 22,2 C 66 % 1020,4 hPa 0,0 l/m 2 min 0 min 656 W/m 9,7 km/h (2 Bft) 100,00 %
20.07.2020 12:18 21,6 C 25,6 C 22,2 C 69 % 1020,5 hPa 0,0 l/m 2 min 0 min 885 W/m 6,4 km/h (2 Bft) 95,74 %
20.07.2020 12:20 21,6 C 23,3 C 21,7 C 67 % 1020,5 hPa 0,0 l/m 0 min 0 min 180 W/m 6,4 km/h (2 Bft) 100,00 %
20.07.2020 12:22 21,6 C 22,2 C 21,1 C 68 % 1020,5 hPa 0,0 l/m 0 min 0 min 196 W/m 6,4 km/h (2 Bft) 100,00 %
20.07.2020 12:24 21,6 C 21,7 C 20,6 C 66 % 1020,5 hPa 0,0 l/m 0 min 0 min 221 W/m 6,4 km/h (2 Bft) 95,65 %
20.07.2020 12:26 21,5 C 21,7 C 20,6 C 66 % 1020,5 hPa 0,0 l/m 0 min 0 min 249 W/m 9,7 km/h (2 Bft) 100,00 %
20.07.2020 12:28 21,4 C 21,7 C 20,6 C 65 % 1020,5 hPa 0,0 l/m 0 min 0 min 287 W/m 6,4 km/h (2 Bft) 97,87 %
20.07.2020 12:30 21,3 C 23,3 C 21,1 C 65 % 1020,6 hPa 0,0 l/m 0 min 0 min 375 W/m 6,4 km/h (2 Bft) 100,00 %
20.07.2020 12:32 21,3 C 24,4 C 21,1 C 65 % 1020,5 hPa 0,0 l/m 2 min 0 min 776 W/m 12,9 km/h (3 Bft) 100,00 %
20.07.2020 12:34 21,4 C 26,7 C 21,7 C 66 % 1020,6 hPa 0,0 l/m 2 min 0 min 885 W/m 12,9 km/h (3 Bft) 97,87 %
20.07.2020 12:36 21,5 C 27,2 C 21,7 C 65 % 1020,6 hPa 0,0 l/m 2 min 0 min 1016 W/m 9,7 km/h (2 Bft) 100,00 %
20.07.2020 12:38 21,6 C 28,3 C 21,7 C 66 % 1020,5 hPa 0,0 l/m 2 min 0 min 968 W/m 9,7 km/h (2 Bft) 100,00 %
20.07.2020 12:40 21,8 C 28,3 C 21,7 C 66 % 1020,5 hPa 0,0 l/m 2 min 0 min 970 W/m 9,7 km/h (2 Bft) 100,00 %
20.07.2020 12:42 21,9 C 27,8 C 21,7 C 65 % 1020,5 hPa 0,0 l/m 2 min 0 min 975 W/m 12,9 km/h (3 Bft) 100,00 %
20.07.2020 12:44 22,0 C 28,3 C 21,7 C 64 % 1020,6 hPa 0,0 l/m 2 min 0 min 983 W/m 6,4 km/h (2 Bft) 100,00 %
20.07.2020 12:46 22,2 C 28,9 C 21,7 C 65 % 1020,6 hPa 0,0 l/m 2 min 0 min 1007 W/m 12,9 km/h (3 Bft) 100,00 %
20.07.2020 12:48 22,3 C 28,9 C 22,2 C 62 % 1020,5 hPa 0,0 l/m 2 min 0 min 996 W/m 12,9 km/h (3 Bft) 97,87 %
20.07.2020 12:50 22,5 C 30,0 C 22,2 C 64 % 1020,5 hPa 0,0 l/m 2 min 0 min 984 W/m 9,7 km/h (2 Bft) 100,00 %
20.07.2020 12:52 22,7 C 30,0 C 22,8 C 61 % 1020,5 hPa 0,0 l/m 2 min 0 min 979 W/m 9,7 km/h (2 Bft) 100,00 %
20.07.2020 12:54 22,9 C 30,6 C 22,8 C 62 % 1020,5 hPa 0,0 l/m 2 min 0 min 982 W/m 12,9 km/h (3 Bft) 100,00 %
20.07.2020 12:56 23,1 C 30,6 C 22,8 C 60 % 1020,5 hPa 0,0 l/m 2 min 0 min 987 W/m 6,4 km/h (2 Bft) 100,00 %
20.07.2020 12:58 23,2 C 31,1 C 22,8 C 59 % 1020,3 hPa 0,0 l/m 2 min 0 min 998 W/m 6,4 km/h (2 Bft) 100,00 %
20.07.2020 13:00 23,3 C 28,3 C 22,8 C 58 % 1020,5 hPa 0,0 l/m 2 min 0 min 1016 W/m 16,1 km/h (3 Bft) 100,00 %
20.07.2020 13:02 23,3 C 26,1 C 22,2 C 58 % 1020,4 hPa 0,0 l/m 2 min 0 min 430 W/m 6,4 km/h (2 Bft) 100,00 %
20.07.2020 13:04 23,3 C 27,8 C 22,2 C 58 % 1020,3 hPa 0,0 l/m 0 min 0 min 375 W/m 3,2 km/h (1 Bft) 100,00 %
20.07.2020 13:06 23,3 C 28,3 C 22,8 C 59 % 1020,3 hPa 0,0 l/m 2 min 0 min 1082 W/m 6,4 km/h (2 Bft) 100,00 %
20.07.2020 13:08 23,4 C 27,8 C 22,8 C 58 % 1020,3 hPa 0,0 l/m 2 min 0 min 1121 W/m 6,4 km/h (2 Bft) 100,00 %
20.07.2020 13:10 23,4 C 28,3 C 22,8 C 56 % 1020,3 hPa 0,0 l/m 2 min 0 min 1111 W/m 16,1 km/h (3 Bft) 97,87 %
20.07.2020 13:12 23,5 C 28,3 C 22,8 C 56 % 1020,3 hPa 0,0 l/m 2 min 0 min 1039 W/m 9,7 km/h (2 Bft) 97,87 %
20.07.2020 13:14 23,6 C 27,8 C 22,8 C 57 % 1020,3 hPa 0,0 l/m 2 min 0 min 922 W/m 12,9 km/h (3 Bft) 95,74 %
20.07.2020 13:16 23,6 C 29,4 C 22,8 C 59 % 1020,3 hPa 0,0 l/m 2 min 0 min 919 W/m 12,9 km/h (3 Bft) 97,83 %
20.07.2020 13:18 23,7 C 29,4 C 22,8 C 56 % 1020,4 hPa 0,0 l/m 2 min 0 min 1037 W/m 9,7 km/h (2 Bft) 97,87 %
20.07.2020 13:20 23,7 C 28,9 C 22,8 C 55 % 1020,3 hPa 0,0 l/m 2 min 0 min 1026 W/m 16,1 km/h (3 Bft) 97,87 %
20.07.2020 13:22 23,8 C 30,0 C 22,8 C 57 % 1020,3 hPa 0,0 l/m 2 min 0 min 1018 W/m 6,4 km/h (2 Bft) 97,87 %
20.07.2020 13:24 23,9 C 30,6 C 23,3 C 56 % 1020,4 hPa 0,0 l/m 2 min 0 min 1022 W/m 6,4 km/h (2 Bft) 97,87 %
20.07.2020 13:26 24,1 C 30,0 C 23,3 C 53 % 1020,4 hPa 0,0 l/m 2 min 0 min 1028 W/m 6,4 km/h (2 Bft) 95,74 %
20.07.2020 13:28 24,2 C 30,6 C 23,9 C 53 % 1020,4 hPa 0,0 l/m 2 min 0 min 1014 W/m 9,7 km/h (2 Bft) 95,65 %
20.07.2020 13:30 24,3 C 30,6 C 23,9 C 54 % 1020,4 hPa 0,0 l/m 2 min 0 min 1000 W/m 6,4 km/h (2 Bft) 95,74 %
20.07.2020 13:32 24,4 C 30,0 C 24,4 C 52 % 1020,3 hPa 0,0 l/m 2 min 0 min 1017 W/m 16,1 km/h (3 Bft) 95,74 %
20.07.2020 13:34 24,5 C 30,6 C 24,4 C 53 % 1020,3 hPa 0,0 l/m 2 min 0 min 1050 W/m 9,7 km/h (2 Bft) 95,74 %
20.07.2020 13:36 24,6 C 30,0 C 24,4 C 54 % 1020,3 hPa 0,0 l/m 2 min 0 min 1088 W/m 9,7 km/h (2 Bft) 97,87 %
20.07.2020 13:38 24,6 C 30,0 C 24,4 C 54 % 1020,3 hPa 0,0 l/m 2 min 0 min 1109 W/m 6,4 km/h (2 Bft) 95,74 %
20.07.2020 13:40 24,7 C 30,0 C 25,0 C 53 % 1020,3 hPa 0,0 l/m 2 min 0 min 1102 W/m 9,7 km/h (2 Bft) 95,65 %
20.07.2020 13:42 24,7 C 30,0 C 25,6 C 53 % 1020,2 hPa 0,0 l/m 2 min 0 min 1063 W/m 16,1 km/h (3 Bft) 95,74 %
20.07.2020 13:44 24,8 C 31,1 C 27,2 C 53 % 1020,2 hPa 0,0 l/m 2 min 0 min 1070 W/m 12,9 km/h (3 Bft) 97,87 %
20.07.2020 13:46 24,9 C 30,6 C 29,4 C 53 % 1020,1 hPa 0,0 l/m 2 min 0 min 1097 W/m 9,7 km/h (2 Bft) 95,74 %
20.07.2020 13:48 25,1 C 30,6 C 31,1 C 54 % 1020,3 hPa 0,0 l/m 2 min 0 min 1166 W/m 3,2 km/h (1 Bft) 95,74 %
20.07.2020 13:50 25,1 C 27,8 C 28,9 C 51 % 1020,3 hPa 0,0 l/m 2 min 0 min 1128 W/m 6,4 km/h (2 Bft) 93,62 %
20.07.2020 13:52 25,1 C 25,6 C 26,7 C 51 % 1020,3 hPa 0,0 l/m 0 min 0 min 326 W/m 9,7 km/h (2 Bft) 95,65 %
20.07.2020 13:54 24,8 C 23,9 C 25,0 C 50 % 1020,4 hPa 0,0 l/m 0 min 0 min 198 W/m 12,9 km/h (3 Bft) 97,87 %
20.07.2020 13:56 24,6 C 22,8 C 23,3 C 51 % 1020,4 hPa 0,0 l/m 0 min 0 min 206 W/m 12,9 km/h (3 Bft) 97,87 %
20.07.2020 13:58 24,3 C 22,8 C 22,8 C 52 % 1020,3 hPa 0,0 l/m 0 min 0 min 222 W/m 6,4 km/h (2 Bft) 97,87 %
20.07.2020 14:00 24,1 C 25,0 C 24,4 C 54 % 1020,3 hPa 0,0 l/m 0 min 0 min 265 W/m 6,4 km/h (2 Bft) 97,87 %
20.07.2020 14:02 24,0 C 26,1 C 25,6 C 50 % 1020,3 hPa 0,0 l/m 2 min 0 min 955 W/m 12,9 km/h (3 Bft) 97,87 %
20.07.2020 14:04 23,9 C 27,8 C 27,8 C 53 % 1020,3 hPa 0,0 l/m 2 min 0 min 1076 W/m 9,7 km/h (2 Bft) 97,83 %
20.07.2020 14:06 23,9 C 27,2 C 27,2 C 52 % 1020,3 hPa 0,0 l/m 2 min 0 min 1078 W/m 16,1 km/h (3 Bft) 97,87 %
20.07.2020 14:08 23,9 C 27,8 C 26,1 C 49 % 1020,3 hPa 0,0 l/m 2 min 0 min 1036 W/m 9,7 km/h (2 Bft) 95,74 %
20.07.2020 14:10 23,8 C 28,9 C 26,7 C 49 % 1020,2 hPa 0,0 l/m 2 min 0 min 1035 W/m 6,4 km/h (2 Bft) 97,87 %
20.07.2020 14:12 23,9 C 29,4 C 26,7 C 52 % 1020,3 hPa 0,0 l/m 2 min 0 min 1048 W/m 9,7 km/h (2 Bft) 97,87 %
20.07.2020 14:14 24,0 C 28,3 C 26,1 C 53 % 1020,2 hPa 0,0 l/m 2 min 0 min 1066 W/m 6,4 km/h (2 Bft) 95,74 %
20.07.2020 14:16 24,0 C 25,6 C 24,4 C 52 % 1020,2 hPa 0,0 l/m 2 min 0 min 468 W/m 9,7 km/h (2 Bft) 97,83 %
20.07.2020 14:18 23,9 C 25,0 C 23,9 C 53 % 1020,1 hPa 0,0 l/m 0 min 0 min 178 W/m 6,4 km/h (2 Bft) 97,87 %
20.07.2020 14:20 23,8 C 23,9 C 23,3 C 53 % 1020,2 hPa 0,0 l/m 0 min 0 min 164 W/m 6,4 km/h (2 Bft) 95,74 %
20.07.2020 14:22 23,7 C 23,9 C 22,8 C 52 % 1020,2 hPa 0,0 l/m 0 min 0 min 189 W/m 12,9 km/h (3 Bft) 97,87 %
20.07.2020 14:24 23,7 C 26,7 C 23,3 C 55 % 1020,2 hPa 0,0 l/m 2 min 0 min 874 W/m 9,7 km/h (2 Bft) 97,87 %
20.07.2020 14:26 23,7 C 27,8 C 23,9 C 54 % 1020,1 hPa 0,0 l/m 2 min 0 min 1038 W/m 19,3 km/h (3 Bft) 97,83 %
20.07.2020 14:28 23,8 C 29,4 C 24,4 C 55 % 1020,2 hPa 0,0 l/m 2 min 0 min 1026 W/m 3,2 km/h (1 Bft) 93,62 %
20.07.2020 14:30 23,8 C 28,9 C 24,4 C 53 % 1020,3 hPa 0,0 l/m 2 min 0 min 972 W/m 9,7 km/h (2 Bft) 95,74 %
20.07.2020 14:32 23,9 C 28,3 C 24,4 C 51 % 1020,2 hPa 0,0 l/m 2 min 0 min 1013 W/m 6,4 km/h (2 Bft) 95,74 %
20.07.2020 14:34 24,1 C 30,0 C 24,4 C 52 % 1020,3 hPa 0,0 l/m 2 min 0 min 992 W/m 6,4 km/h (2 Bft) 95,74 %
20.07.2020 14:36 24,1 C 30,0 C 24,4 C 50 % 1020,2 hPa 0,0 l/m 2 min 0 min 1001 W/m 6,4 km/h (2 Bft) 93,62 %
20.07.2020 14:38 24,3 C 31,1 C 24,4 C 54 % 1020,2 hPa 0,0 l/m 2 min 0 min 1002 W/m 3,2 km/h (1 Bft) 95,65 %
20.07.2020 14:40 24,5 C 31,1 C 23,9 C 53 % 1020,2 hPa 0,0 l/m 2 min 0 min 1011 W/m 6,4 km/h (2 Bft) 95,74 %
20.07.2020 14:42 24,7 C 31,1 C 24,4 C 52 % 1020,1 hPa 0,0 l/m 2 min 0 min 1026 W/m 12,9 km/h (3 Bft) 95,74 %
20.07.2020 14:44 24,9 C 31,1 C 24,4 C 50 % 1020,1 hPa 0,0 l/m 2 min 0 min 1054 W/m 9,7 km/h (2 Bft) 93,62 %
20.07.2020 14:46 24,9 C 27,8 C 23,9 C 47 % 1020,3 hPa 0,0 l/m 2 min 0 min 842 W/m 12,9 km/h (3 Bft) 97,83 %
20.07.2020 14:48 24,9 C 26,1 C 23,3 C 49 % 1020,2 hPa 0,0 l/m 0 min 0 min 243 W/m 9,7 km/h (2 Bft) 93,62 %
20.07.2020 14:50 24,8 C 26,1 C 23,3 C 49 % 1020,1 hPa 0,0 l/m 0 min 0 min 241 W/m 6,4 km/h (2 Bft) 95,65 %
20.07.2020 14:52 24,7 C 25,0 C 23,3 C 49 % 1020,2 hPa 0,0 l/m 0 min 0 min 254 W/m 9,7 km/h (2 Bft) 95,74 %
20.07.2020 14:54 24,6 C 25,6 C 22,8 C 50 % 1020,3 hPa 0,0 l/m 0 min 0 min 322 W/m 6,4 km/h (2 Bft) 97,87 %
20.07.2020 14:56 24,4 C 27,8 C 22,8 C 49 % 1020,2 hPa 0,0 l/m 2 min 0 min 1017 W/m 6,4 km/h (2 Bft) 97,67 %
20.07.2020 14:58 24,5 C 29,4 C 23,3 C 53 % 1020,2 hPa 0,0 l/m 2 min 0 min 1014 W/m 6,4 km/h (2 Bft) 97,87 %
20.07.2020 15:00 24,6 C 30,6 C 23,3 C 52 % 1020,2 hPa 0,0 l/m 2 min 0 min 1003 W/m 12,9 km/h (3 Bft) 97,87 %
20.07.2020 15:02 24,7 C 30,6 C 23,3 C 47 % 1020,1 hPa 0,0 l/m 2 min 0 min 991 W/m 6,4 km/h (2 Bft) 97,87 %
20.07.2020 15:04 24,8 C 30,6 C 23,9 C 49 % 1020,2 hPa 0,0 l/m 2 min 0 min 992 W/m 3,2 km/h (1 Bft) 97,87 %
20.07.2020 15:06 24,9 C 30,0 C 23,9 C 47 % 1020,2 hPa 0,0 l/m 2 min 0 min 987 W/m 9,7 km/h (2 Bft) 93,48 %
20.07.2020 15:08 24,9 C 30,0 C 23,9 C 46 % 1020,2 hPa 0,0 l/m 2 min 0 min 986 W/m 12,9 km/h (3 Bft) 93,62 %
20.07.2020 15:10 24,9 C 30,0 C 23,9 C 50 % 1020,1 hPa 0,0 l/m 2 min 0 min 990 W/m 12,9 km/h (3 Bft) 91,49 %
20.07.2020 15:12 25,1 C 30,6 C 23,9 C 49 % 1020,1 hPa 0,0 l/m 2 min 0 min 985 W/m 6,4 km/h (2 Bft) 97,87 %
20.07.2020 15:14 25,2 C 31,1 C 23,9 C 50 % 1020,1 hPa 0,0 l/m 2 min 0 min 998 W/m 6,4 km/h (2 Bft) 95,74 %
20.07.2020 15:16 25,3 C 31,7 C 23,9 C 48 % 1020,1 hPa 0,0 l/m 2 min 0 min 1018 W/m 6,4 km/h (2 Bft) 97,87 %
20.07.2020 15:18 25,4 C 31,1 C 23,9 C 50 % 1020,2 hPa 0,0 l/m 2 min 0 min 1023 W/m 6,4 km/h (2 Bft) 97,83 %
20.07.2020 15:20 25,6 C 32,2 C 24,4 C 51 % 1020,2 hPa 0,0 l/m 2 min 0 min 1016 W/m 6,4 km/h (2 Bft) 97,87 %
20.07.2020 15:22 25,8 C 31,7 C 24,4 C 48 % 1020,1 hPa 0,0 l/m 2 min 0 min 1014 W/m 9,7 km/h (2 Bft) 97,87 %
20.07.2020 15:24 25,9 C 32,2 C 24,4 C 49 % 1020,1 hPa 0,0 l/m 2 min 0 min 992 W/m 9,7 km/h (2 Bft) 97,87 %
20.07.2020 15:26 26,1 C 31,7 C 24,4 C 49 % 1020,1 hPa 0,0 l/m 2 min 0 min 978 W/m 9,7 km/h (2 Bft) 100,00 %
20.07.2020 15:28 26,2 C 31,7 C 24,4 C 49 % 1020,1 hPa 0,0 l/m 2 min 0 min 955 W/m 6,4 km/h (2 Bft) 100,00 %
20.07.2020 15:30 26,3 C 31,7 C 24,4 C 50 % 1020,1 hPa 0,0 l/m 2 min 0 min 939 W/m 6,4 km/h (2 Bft) 100,00 %
20.07.2020 15:32 26,4 C 31,7 C 24,4 C 49 % 1020,1 hPa 0,0 l/m 2 min 0 min 949 W/m 6,4 km/h (2 Bft) 97,87 %
20.07.2020 15:34 26,5 C 30,0 C 24,4 C 45 % 1020,1 hPa 0,0 l/m 2 min 0 min 976 W/m 6,4 km/h (2 Bft) 100,00 %
20.07.2020 15:36 26,4 C 29,4 C 24,4 C 45 % 1020,0 hPa 0,0 l/m 2 min 0 min 1000 W/m 12,9 km/h (3 Bft) 100,00 %
20.07.2020 15:38 26,4 C 27,2 C 24,4 C 47 % 1020,0 hPa 0,0 l/m 2 min 0 min 809 W/m 6,4 km/h (2 Bft) 100,00 %
20.07.2020 15:40 26,3 C 25,6 C 23,9 C 48 % 1020,0 hPa 0,0 l/m 0 min 0 min 217 W/m 6,4 km/h (2 Bft) 100,00 %
20.07.2020 15:42 26,1 C 24,4 C 23,3 C 47 % 1020,0 hPa 0,0 l/m 0 min 0 min 237 W/m 3,2 km/h (1 Bft) 97,83 %
20.07.2020 15:44 25,8 C 26,1 C 23,3 C 47 % 1020,0 hPa 0,0 l/m 0 min 0 min 264 W/m 6,4 km/h (2 Bft) 100,00 %
20.07.2020 15:46 25,7 C 28,3 C 23,9 C 49 % 1020,0 hPa 0,0 l/m 2 min 0 min 876 W/m 3,2 km/h (1 Bft) 100,00 %
20.07.2020 15:48 25,7 C 29,4 C 24,4 C 48 % 1020,0 hPa 0,0 l/m 2 min 0 min 1000 W/m 9,7 km/h (2 Bft) 100,00 %
20.07.2020 15:50 25,8 C 31,1 C 24,4 C 51 % 1020,0 hPa 0,0 l/m 2 min 0 min 1011 W/m 3,2 km/h (1 Bft) 100,00 %
20.07.2020 15:52 25,8 C 31,7 C 25,0 C 49 % 1020,0 hPa 0,0 l/m 2 min 0 min 1017 W/m 3,2 km/h (1 Bft) 95,74 %
20.07.2020 15:54 26,0 C 31,7 C 25,0 C 49 % 1020,0 hPa 0,0 l/m 2 min 0 min 1023 W/m 3,2 km/h (1 Bft) 97,83 %
20.07.2020 15:56 26,1 C 30,0 C 25,0 C 45 % 1020,0 hPa 0,0 l/m 2 min 0 min 991 W/m 12,9 km/h (3 Bft) 97,87 %
20.07.2020 15:58 26,1 C 30,0 C 25,0 C 48 % 1020,0 hPa 0,0 l/m 2 min 0 min 895 W/m 6,4 km/h (2 Bft) 95,74 %
20.07.2020 16:00 26,2 C 30,6 C 25,6 C 48 % 1020,0 hPa 0,0 l/m 2 min 0 min 1023 W/m 6,4 km/h (2 Bft) 97,87 %
20.07.2020 16:02 26,2 C 31,1 C 25,6 C 49 % 1020,0 hPa 0,0 l/m 2 min 0 min 1027 W/m 6,4 km/h (2 Bft) 97,87 %
20.07.2020 16:04 26,3 C 31,7 C 26,1 C 48 % 1020,0 hPa 0,0 l/m 2 min 0 min 1016 W/m 6,4 km/h (2 Bft) 97,87 %
20.07.2020 16:06 26,4 C 28,3 C 25,6 C 46 % 1020,0 hPa 0,0 l/m 2 min 0 min 905 W/m 12,9 km/h (3 Bft) 97,83 %
20.07.2020 16:08 26,3 C 27,8 C 25,0 C 48 % 1020,1 hPa 0,0 l/m 0 min 0 min 253 W/m 12,9 km/h (3 Bft) 97,87 %
20.07.2020 16:10 26,2 C 28,9 C 25,6 C 48 % 1020,1 hPa 0,0 l/m 2 min 0 min 896 W/m 9,7 km/h (2 Bft) 95,74 %
20.07.2020 16:12 26,2 C 27,2 C 25,0 C 47 % 1020,1 hPa 0,0 l/m 2 min 0 min 554 W/m 6,4 km/h (2 Bft) 97,87 %
20.07.2020 16:14 26,0 C 25,6 C 24,4 C 47 % 1020,1 hPa 0,0 l/m 0 min 0 min 180 W/m 3,2 km/h (1 Bft) 97,87 %
20.07.2020 16:16 25,8 C 24,4 C 23,9 C 49 % 1020,1 hPa 0,0 l/m 0 min 0 min 178 W/m 3,2 km/h (1 Bft) 97,83 %
20.07.2020 16:18 25,7 C 26,1 C 23,9 C 47 % 1020,1 hPa 0,0 l/m 0 min 0 min 239 W/m 9,7 km/h (2 Bft) 97,87 %
20.07.2020 16:20 25,6 C 27,8 C 26,1 C 49 % 1020,0 hPa 0,0 l/m 2 min 0 min 448 W/m 12,9 km/h (3 Bft) 97,87 %
20.07.2020 16:22 25,5 C 27,8 C 27,8 C 46 % 1020,1 hPa 0,0 l/m 2 min 0 min 901 W/m 9,7 km/h (2 Bft) 97,87 %
20.07.2020 16:24 25,5 C 28,3 C 27,2 C 47 % 1020,1 hPa 0,0 l/m 2 min 0 min 888 W/m 19,3 km/h (3 Bft) 97,87 %
20.07.2020 16:26 25,6 C 29,4 C 26,7 C 48 % 1020,1 hPa 0,0 l/m 2 min 0 min 863 W/m 6,4 km/h (2 Bft) 97,87 %
20.07.2020 16:28 25,6 C 29,4 C 26,1 C 47 % 1020,0 hPa 0,0 l/m 2 min 0 min 842 W/m 9,7 km/h (2 Bft) 95,65 %
20.07.2020 16:30 25,7 C 29,4 C 25,6 C 48 % 1020,0 hPa 0,0 l/m 2 min 0 min 828 W/m 9,7 km/h (2 Bft) 97,87 %
20.07.2020 16:32 25,8 C 30,6 C 25,0 C 46 % 1020,0 hPa 0,0 l/m 2 min 0 min 845 W/m 9,7 km/h (2 Bft) 95,74 %
20.07.2020 16:34 25,8 C 30,6 C 25,6 C 45 % 1020,0 hPa 0,0 l/m 2 min 0 min 860 W/m 6,4 km/h (2 Bft) 93,62 %
20.07.2020 16:36 25,9 C 30,6 C 25,6 C 46 % 1020,0 hPa 0,0 l/m 2 min 0 min 864 W/m 9,7 km/h (2 Bft) 97,87 %
20.07.2020 16:38 26,0 C 30,6 C 25,6 C 46 % 1020,0 hPa 0,0 l/m 2 min 0 min 861 W/m 12,9 km/h (3 Bft) 97,87 %
20.07.2020 16:40 26,1 C 30,6 C 25,6 C 47 % 1020,0 hPa 0,0 l/m 2 min 0 min 856 W/m 9,7 km/h (2 Bft) 97,83 %
20.07.2020 16:42 26,2 C 30,6 C 25,6 C 46 % 1019,9 hPa 0,0 l/m 2 min 0 min 858 W/m 9,7 km/h (2 Bft) 97,87 %
20.07.2020 16:44 26,3 C 30,6 C 25,0 C 48 % 1020,1 hPa 0,0 l/m 2 min 0 min 862 W/m 9,7 km/h (2 Bft) 97,87 %
20.07.2020 16:46 26,4 C 31,1 C 25,0 C 49 % 1020,1 hPa 0,0 l/m 2 min 0 min 856 W/m 6,4 km/h (2 Bft) 97,87 %
20.07.2020 16:48 26,5 C 31,7 C 25,0 C 47 % 1020,1 hPa 0,0 l/m 2 min 0 min 856 W/m 6,4 km/h (2 Bft) 95,74 %
20.07.2020 16:50 26,6 C 31,1 C 25,6 C 48 % 1020,1 hPa 0,0 l/m 2 min 0 min 861 W/m 12,9 km/h (3 Bft) 97,87 %
20.07.2020 16:52 26,7 C 30,6 C 25,6 C 47 % 1020,0 hPa 0,0 l/m 2 min 0 min 874 W/m 12,9 km/h (3 Bft) 95,65 %
20.07.2020 16:54 26,7 C 30,0 C 25,6 C 48 % 1020,1 hPa 0,0 l/m 2 min 0 min 866 W/m 6,4 km/h (2 Bft) 97,87 %
20.07.2020 16:56 26,8 C 30,0 C 26,1 C 48 % 1020,1 hPa 0,0 l/m 2 min 0 min 867 W/m 9,7 km/h (2 Bft) 97,87 %
20.07.2020 16:58 26,8 C 28,9 C 25,6 C 48 % 1020,1 hPa 0,0 l/m 2 min 0 min 810 W/m 6,4 km/h (2 Bft) 95,74 %
20.07.2020 17:00 26,7 C 26,7 C 25,0 C 47 % 1020,1 hPa 0,0 l/m 0 min 0 min 170 W/m 6,4 km/h (2 Bft) 97,87 %
20.07.2020 17:02 26,6 C 25,6 C 24,4 C 46 % 1020,1 hPa 0,0 l/m 0 min 0 min 167 W/m 9,7 km/h (2 Bft) 95,74 %
20.07.2020 17:04 26,4 C 24,4 C 23,9 C 46 % 1020,1 hPa 0,0 l/m 0 min 0 min 162 W/m 6,4 km/h (2 Bft) 97,87 %
20.07.2020 17:06 26,3 C 23,9 C 23,3 C 48 % 1020,1 hPa 0,0 l/m 0 min 0 min 150 W/m 6,4 km/h (2 Bft) 97,87 %
20.07.2020 17:08 26,1 C 23,3 C 22,8 C 49 % 1020,0 hPa 0,0 l/m 0 min 0 min 145 W/m 6,4 km/h (2 Bft) 97,87 %
20.07.2020 17:10 25,8 C 22,8 C 22,2 C 47 % 1020,1 hPa 0,0 l/m 0 min 0 min 143 W/m 9,7 km/h (2 Bft) 97,87 %
20.07.2020 17:12 25,6 C 22,8 C 22,2 C 49 % 1020,0 hPa 0,0 l/m 0 min 0 min 162 W/m 9,7 km/h (2 Bft) 95,74 %
20.07.2020 17:14 25,3 C 24,4 C 22,2 C 49 % 1020,1 hPa 0,0 l/m 0 min 0 min 226 W/m 9,7 km/h (2 Bft) 97,83 %
20.07.2020 17:16 25,2 C 26,1 C 22,8 C 49 % 1020,1 hPa 0,0 l/m 2 min 0 min 648 W/m 6,4 km/h (2 Bft) 97,87 %
20.07.2020 17:18 25,2 C 27,8 C 23,3 C 49 % 1020,0 hPa 0,0 l/m 2 min 0 min 763 W/m 9,7 km/h (2 Bft) 97,87 %
20.07.2020 17:20 25,2 C 27,8 C 23,9 C 49 % 1020,0 hPa 0,0 l/m 2 min 0 min 734 W/m 19,3 km/h (3 Bft) 97,87 %
20.07.2020 17:22 25,2 C 28,3 C 23,9 C 50 % 1020,1 hPa 0,0 l/m 2 min 0 min 713 W/m 12,9 km/h (3 Bft) 97,87 %
20.07.2020 17:24 25,2 C 28,3 C 24,4 C 50 % 1020,1 hPa 0,0 l/m 2 min 0 min 715 W/m 6,4 km/h (2 Bft) 97,87 %
20.07.2020 17:26 25,2 C 28,3 C 24,4 C 49 % 1020,0 hPa 0,0 l/m 2 min 0 min 689 W/m 12,9 km/h (3 Bft) 97,83 %
20.07.2020 17:28 25,2 C 28,3 C 23,9 C 48 % 1020,0 hPa 0,0 l/m 2 min 0 min 668 W/m 9,7 km/h (2 Bft) 97,87 %
20.07.2020 17:30 25,3 C 28,3 C 24,4 C 49 % 1020,0 hPa 0,0 l/m 2 min 0 min 667 W/m 6,4 km/h (2 Bft) 97,87 %
20.07.2020 17:32 25,3 C 28,3 C 24,4 C 49 % 1020,0 hPa 0,0 l/m 2 min 0 min 644 W/m 6,4 km/h (2 Bft) 97,87 %
20.07.2020 17:34 25,4 C 28,3 C 23,9 C 48 % 1020,0 hPa 0,0 l/m 2 min 0 min 624 W/m 12,9 km/h (3 Bft) 97,87 %
20.07.2020 17:36 25,4 C 26,7 C 23,9 C 48 % 1020,0 hPa 0,0 l/m 2 min 0 min 597 W/m 6,4 km/h (2 Bft) 100,00 %
20.07.2020 17:38 25,4 C 25,0 C 23,3 C 48 % 1020,0 hPa 0,0 l/m 0 min 0 min 170 W/m 9,7 km/h (2 Bft) 97,83 %
20.07.2020 17:40 25,3 C 23,9 C 22,8 C 47 % 1020,0 hPa 0,0 l/m 0 min 0 min 108 W/m 6,4 km/h (2 Bft) 100,00 %
20.07.2020 17:42 25,2 C 23,3 C 22,8 C 48 % 1020,0 hPa 0,0 l/m 0 min 0 min 121 W/m 6,4 km/h (2 Bft) 100,00 %
20.07.2020 17:44 25,1 C 24,4 C 23,3 C 48 % 1020,0 hPa 0,0 l/m 0 min 0 min 130 W/m 3,2 km/h (1 Bft) 100,00 %
20.07.2020 17:46 25,0 C 23,9 C 22,8 C 50 % 1020,0 hPa 0,0 l/m 0 min 0 min 123 W/m 6,4 km/h (2 Bft) 100,00 %
20.07.2020 17:48 24,8 C 23,3 C 22,8 C 49 % 1020,0 hPa 0,0 l/m 0 min 0 min 108 W/m 6,4 km/h (2 Bft) 100,00 %
20.07.2020 17:50 24,7 C 22,8 C 22,2 C 50 % 1020,0 hPa 0,0 l/m 0 min 0 min 109 W/m 9,7 km/h (2 Bft) 100,00 %
20.07.2020 17:52 24,6 C 22,2 C 21,7 C 49 % 1020,0 hPa 0,0 l/m 0 min 0 min 126 W/m 9,7 km/h (2 Bft) 100,00 %
20.07.2020 17:54 24,4 C 22,2 C 21,7 C 50 % 1020,0 hPa 0,0 l/m 2 min 0 min 294 W/m 9,7 km/h (2 Bft) 100,00 %
20.07.2020 17:56 24,2 C 22,8 C 21,7 C 52 % 1020,0 hPa 0,0 l/m 0 min 0 min 201 W/m 6,4 km/h (2 Bft) 97,87 %
20.07.2020 17:58 24,1 C 23,9 C 21,7 C 52 % 1019,9 hPa 0,0 l/m 2 min 0 min 255 W/m 3,2 km/h (1 Bft) 100,00 %
20.07.2020 18:00 24,1 C 23,9 C 22,2 C 54 % 1020,0 hPa 0,0 l/m 2 min 0 min 498 W/m 3,2 km/h (1 Bft) 100,00 %
20.07.2020 18:02 23,9 C 24,4 C 22,2 C 54 % 1020,0 hPa 0,0 l/m 0 min 0 min 211 W/m 6,4 km/h (2 Bft) 97,87 %
20.07.2020 18:04 23,9 C 25,0 C 22,2 C 53 % 1020,0 hPa 0,0 l/m 2 min 0 min 576 W/m 6,4 km/h (2 Bft) 97,87 %
20.07.2020 18:08 23,8 C 23,3 C 22,2 C 53 % 1020,0 hPa 0,0 l/m 4 min 0 min 282 W/m 6,4 km/h (2 Bft) 96,77 %
20.07.2020 18:10 23,8 C 22,8 C 21,7 C 53 % 1019,9 hPa 0,0 l/m 0 min 0 min 110 W/m 3,2 km/h (1 Bft) 97,87 %
20.07.2020 18:12 23,7 C 22,2 C 21,7 C 52 % 1019,9 hPa 0,0 l/m 0 min 0 min 112 W/m 9,7 km/h (2 Bft) 97,87 %
20.07.2020 18:14 23,6 C 22,2 C 21,1 C 53 % 1019,9 hPa 0,0 l/m 0 min 0 min 111 W/m 3,2 km/h (1 Bft) 95,74 %
20.07.2020 18:16 23,5 C 22,8 C 21,1 C 54 % 1019,9 hPa 0,0 l/m 0 min 0 min 130 W/m 9,7 km/h (2 Bft) 97,87 %
20.07.2020 18:18 23,4 C 23,9 C 21,1 C 53 % 1019,9 hPa 0,0 l/m 2 min 0 min 426 W/m 6,4 km/h (2 Bft) 97,87 %
20.07.2020 18:20 23,4 C 24,4 C 21,1 C 53 % 1019,9 hPa 0,0 l/m 2 min 0 min 490 W/m 19,3 km/h (3 Bft) 95,65 %
20.07.2020 18:22 23,4 C 24,4 C 21,1 C 53 % 1019,9 hPa 0,0 l/m 2 min 0 min 415 W/m 12,9 km/h (3 Bft) 95,74 %
20.07.2020 18:24 23,5 C 25,0 C 21,1 C 56 % 1019,9 hPa 0,0 l/m 2 min 0 min 436 W/m 6,4 km/h (2 Bft) 97,87 %
20.07.2020 18:26 23,6 C 25,0 C 21,1 C 56 % 1019,9 hPa 0,0 l/m 2 min 0 min 434 W/m 6,4 km/h (2 Bft) 97,87 %
20.07.2020 18:28 23,6 C 25,0 C 20,6 C 57 % 1019,9 hPa 0,0 l/m 2 min 0 min 397 W/m 6,4 km/h (2 Bft) 97,87 %
20.07.2020 18:30 23,6 C 24,4 C 20,6 C 58 % 1019,9 hPa 0,0 l/m 2 min 0 min 465 W/m 6,4 km/h (2 Bft) 97,87 %
20.07.2020 18:32 23,6 C 24,4 C 20,6 C 58 % 1019,9 hPa 0,0 l/m 2 min 0 min 452 W/m 6,4 km/h (2 Bft) 95,65 %
20.07.2020 18:34 23,6 C 22,8 C 20,0 C 54 % 1019,9 hPa 0,0 l/m 2 min 0 min 255 W/m 12,9 km/h (3 Bft) 95,74 %
20.07.2020 18:36 23,6 C 22,2 C 20,0 C 54 % 1019,9 hPa 0,0 l/m 0 min 0 min 157 W/m 12,9 km/h (3 Bft) 93,62 %
20.07.2020 18:38 23,5 C 23,3 C 20,0 C 55 % 1019,9 hPa 0,0 l/m 2 min 0 min 299 W/m 3,2 km/h (1 Bft) 95,74 %
20.07.2020 18:40 23,4 C 23,3 C 20,0 C 58 % 1019,9 hPa 0,0 l/m 2 min 0 min 369 W/m 3,2 km/h (1 Bft) 93,62 %
20.07.2020 18:42 23,4 C 23,9 C 20,0 C 56 % 1020,0 hPa 0,0 l/m 2 min 0 min 418 W/m 9,7 km/h (2 Bft) 95,74 %
20.07.2020 18:44 23,4 C 23,9 C 20,6 C 56 % 1019,9 hPa 0,0 l/m 2 min 0 min 422 W/m 6,4 km/h (2 Bft) 93,48 %
20.07.2020 18:46 23,4 C 23,9 C 20,6 C 57 % 1019,9 hPa 0,0 l/m 2 min 0 min 419 W/m 9,7 km/h (2 Bft) 95,74 %
20.07.2020 18:48 23,4 C 23,9 C 20,6 C 55 % 1019,9 hPa 0,0 l/m 2 min 0 min 419 W/m 12,9 km/h (3 Bft) 93,62 %
20.07.2020 18:50 23,4 C 23,9 C 20,6 C 56 % 1020,0 hPa 0,0 l/m 2 min 0 min 414 W/m 9,7 km/h (2 Bft) 95,74 %
20.07.2020 18:52 23,4 C 23,9 C 20,6 C 57 % 1020,0 hPa 0,0 l/m 2 min 0 min 373 W/m 6,4 km/h (2 Bft) 95,74 %
20.07.2020 18:54 23,4 C 22,8 C 20,0 C 54 % 1020,1 hPa 0,0 l/m 2 min 0 min 270 W/m 16,1 km/h (3 Bft) 95,65 %
20.07.2020 18:56 23,4 C 22,8 C 20,0 C 54 % 1020,1 hPa 0,0 l/m 2 min 0 min 210 W/m 12,9 km/h (3 Bft) 95,74 %
20.07.2020 18:58 23,4 C 22,8 C 20,0 C 56 % 1020,1 hPa 0,0 l/m 2 min 0 min 221 W/m 3,2 km/h (1 Bft) 97,92 %
20.07.2020 19:00 23,4 C 22,2 C 20,0 C 56 % 1020,1 hPa 0,0 l/m 0 min 0 min 120 W/m 6,4 km/h (2 Bft) 97,87 %
20.07.2020 19:02 23,4 C 22,2 C 20,0 C 56 % 1020,1 hPa 0,0 l/m 0 min 0 min 133 W/m 9,7 km/h (2 Bft) 93,62 %
20.07.2020 19:04 23,3 C 22,2 C 19,4 C 56 % 1020,1 hPa 0,0 l/m 2 min 0 min 316 W/m 9,7 km/h (2 Bft) 100,00 %
20.07.2020 19:06 23,3 C 22,2 C 20,0 C 55 % 1020,1 hPa 0,0 l/m 2 min 0 min 283 W/m 6,4 km/h (2 Bft) 91,49 %
20.07.2020 19:08 23,2 C 21,7 C 19,4 C 54 % 1020,1 hPa 0,0 l/m 2 min 0 min 203 W/m 6,4 km/h (2 Bft) 95,74 %
20.07.2020 19:10 23,1 C 22,2 C 19,4 C 56 % 1020,1 hPa 0,0 l/m 2 min 0 min 242 W/m 6,4 km/h (2 Bft) 97,83 %
20.07.2020 19:12 23,1 C 21,7 C 19,4 C 55 % 1020,1 hPa 0,0 l/m 0 min 0 min 156 W/m 9,7 km/h (2 Bft) 95,74 %
20.07.2020 19:14 23,0 C 21,1 C 19,4 C 56 % 1020,1 hPa 0,0 l/m 0 min 0 min 66 W/m 3,2 km/h (1 Bft) 97,87 %
20.07.2020 19:16 22,9 C 21,1 C 19,4 C 56 % 1020,0 hPa 0,0 l/m 0 min 0 min 80 W/m 3,2 km/h (1 Bft) 95,74 %
20.07.2020 19:18 22,9 C 21,1 C 19,4 C 55 % 1020,0 hPa 0,0 l/m 2 min 0 min 195 W/m 9,7 km/h (2 Bft) 100,00 %
20.07.2020 19:20 22,8 C 21,7 C 19,4 C 55 % 1020,1 hPa 0,0 l/m 2 min 0 min 290 W/m 6,4 km/h (2 Bft) 100,00 %
20.07.2020 19:22 22,8 C 21,7 C 19,4 C 55 % 1020,0 hPa 0,0 l/m 2 min 0 min 304 W/m 9,7 km/h (2 Bft) 97,83 %
20.07.2020 19:24 22,7 C 21,7 C 19,4 C 57 % 1020,1 hPa 0,0 l/m 2 min 0 min 265 W/m 6,4 km/h (2 Bft) 100,00 %
20.07.2020 19:26 22,7 C 21,7 C 19,4 C 56 % 1020,1 hPa 0,0 l/m 0 min 0 min 88 W/m 6,4 km/h (2 Bft) 100,00 %
20.07.2020 19:28 22,6 C 21,7 C 19,4 C 55 % 1020,1 hPa 0,0 l/m 2 min 0 min 237 W/m 9,7 km/h (2 Bft) 100,00 %
20.07.2020 19:30 22,6 C 21,1 C 19,4 C 55 % 1020,1 hPa 0,0 l/m 2 min 0 min 194 W/m 9,7 km/h (2 Bft) 97,87 %
20.07.2020 19:32 22,5 C 21,1 C 19,4 C 55 % 1020,2 hPa 0,0 l/m 2 min 0 min 193 W/m 9,7 km/h (2 Bft) 97,87 %
20.07.2020 19:34 22,4 C 20,6 C 19,4 C 56 % 1020,1 hPa 0,0 l/m 0 min 0 min 132 W/m 3,2 km/h (1 Bft) 100,00 %
20.07.2020 19:36 22,3 C 20,6 C 18,9 C 55 % 1020,1 hPa 0,0 l/m 0 min 0 min 117 W/m 3,2 km/h (1 Bft) 100,00 %
20.07.2020 19:38 22,2 C 20,6 C 18,9 C 56 % 1020,2 hPa 0,0 l/m 0 min 0 min 91 W/m 3,2 km/h (1 Bft) 97,87 %
20.07.2020 19:40 22,1 C 20,6 C 18,9 C 57 % 1020,2 hPa 0,0 l/m 0 min 0 min 91 W/m 3,2 km/h (1 Bft) 97,87 %
20.07.2020 19:42 22,0 C 20,0 C 18,9 C 56 % 1020,3 hPa 0,0 l/m 0 min 0 min 89 W/m 6,4 km/h (2 Bft) 100,00 %
20.07.2020 19:45 21,9 C 20,0 C 18,9 C 56 % 1020,2 hPa 0,0 l/m 0 min 0 min 85 W/m 6,4 km/h (2 Bft) 100,00 %
20.07.2020 19:50 21,7 C 20,0 C 18,9 C 56 % 1020,1 hPa 0,0 l/m 0 min 0 min 73 W/m 6,4 km/h (2 Bft) 100,00 %
20.07.2020 19:52 21,6 C 20,0 C 18,9 C 56 % 1020,2 hPa 0,0 l/m 0 min 0 min 60 W/m 3,2 km/h (1 Bft) 100,00 %
20.07.2020 19:54 21,6 C 20,0 C 18,9 C 56 % 1020,1 hPa 0,0 l/m 0 min 0 min 58 W/m 9,7 km/h (2 Bft) 100,00 %
20.07.2020 19:56 21,4 C 19,4 C 18,9 C 55 % 1020,2 hPa 0,0 l/m 0 min 0 min 56 W/m 16,1 km/h (3 Bft) 95,83 %
20.07.2020 19:58 21,4 C 19,4 C 18,9 C 55 % 1020,2 hPa 0,0 l/m 0 min 0 min 54 W/m 9,7 km/h (2 Bft) 97,87 %
20.07.2020 20:00 21,3 C 19,4 C 18,9 C 56 % 1020,2 hPa 0,0 l/m 0 min 0 min 53 W/m 3,2 km/h (1 Bft) 95,24 %
20.07.2020 20:02 21,2 C 19,4 C 18,3 C 55 % 1020,2 hPa 0,0 l/m 0 min 0 min 53 W/m 6,4 km/h (2 Bft) 97,87 %
20.07.2020 20:04 21,2 C 19,4 C 18,3 C 55 % 1020,2 hPa 0,0 l/m 0 min 0 min 52 W/m 9,7 km/h (2 Bft) 97,87 %
20.07.2020 20:06 21,1 C 19,4 C 18,3 C 55 % 1020,1 hPa 0,0 l/m 0 min 0 min 48 W/m 3,2 km/h (1 Bft) 98,00 %
20.07.2020 20:08 21,0 C 19,4 C 18,3 C 55 % 1020,1 hPa 0,0 l/m 0 min 0 min 45 W/m 9,7 km/h (2 Bft) 97,87 %
20.07.2020 20:10 20,9 C 19,4 C 18,3 C 55 % 1020,2 hPa 0,0 l/m 0 min 0 min 46 W/m 3,2 km/h (1 Bft) 97,83 %
20.07.2020 20:12 20,8 C 19,4 C 18,3 C 55 % 1020,2 hPa 0,0 l/m 0 min 0 min 46 W/m 6,4 km/h (2 Bft) 97,87 %
20.07.2020 20:14 20,7 C 18,9 C 18,3 C 56 % 1020,2 hPa 0,0 l/m 0 min 0 min 45 W/m 9,7 km/h (2 Bft) 95,83 %
20.07.2020 20:16 20,7 C 18,9 C 18,3 C 56 % 1020,3 hPa 0,0 l/m 0 min 0 min 41 W/m 6,4 km/h (2 Bft) 97,87 %
20.07.2020 20:18 20,6 C 18,9 C 18,3 C 56 % 1020,3 hPa 0,0 l/m 0 min 0 min 42 W/m 3,2 km/h (1 Bft) 95,74 %
20.07.2020 20:20 20,6 C 18,9 C 18,3 C 56 % 1020,2 hPa 0,0 l/m 0 min 0 min 41 W/m 16,1 km/h (3 Bft) 97,87 %
20.07.2020 20:22 20,5 C 18,9 C 18,3 C 55 % 1020,3 hPa 0,0 l/m 0 min 0 min 39 W/m 9,7 km/h (2 Bft) 97,83 %
20.07.2020 20:24 20,4 C 18,9 C 18,3 C 55 % 1020,2 hPa 0,0 l/m 0 min 0 min 39 W/m 9,7 km/h (2 Bft) 95,74 %
20.07.2020 20:26 20,4 C 18,9 C 18,3 C 55 % 1020,3 hPa 0,0 l/m 0 min 0 min 40 W/m 12,9 km/h (3 Bft) 95,74 %
20.07.2020 20:28 20,3 C 18,9 C 18,3 C 56 % 1020,4 hPa 0,0 l/m 0 min 0 min 39 W/m 19,3 km/h (3 Bft) 97,87 %
20.07.2020 20:30 20,3 C 18,9 C 18,3 C 56 % 1020,4 hPa 0,0 l/m 0 min 0 min 39 W/m 9,7 km/h (2 Bft) 97,87 %
20.07.2020 20:32 20,2 C 18,9 C 18,3 C 57 % 1020,5 hPa 0,0 l/m 0 min 0 min 37 W/m 16,1 km/h (3 Bft) 93,62 %
20.07.2020 20:34 20,2 C 18,9 C 18,3 C 56 % 1020,5 hPa 0,0 l/m 0 min 0 min 37 W/m 16,1 km/h (3 Bft) 97,83 %
20.07.2020 20:36 20,1 C 18,9 C 17,8 C 57 % 1020,5 hPa 0,0 l/m 0 min 0 min 36 W/m 19,3 km/h (3 Bft) 97,87 %
20.07.2020 20:38 20,1 C 18,9 C 18,3 C 56 % 1020,6 hPa 0,0 l/m 0 min 0 min 34 W/m 9,7 km/h (2 Bft) 97,67 %
20.07.2020 20:40 20,1 C 18,9 C 17,8 C 56 % 1020,6 hPa 0,0 l/m 0 min 0 min 32 W/m 9,7 km/h (2 Bft) 98,00 %
20.07.2020 20:42 20,1 C 18,3 C 17,8 C 57 % 1020,6 hPa 0,0 l/m 0 min 0 min 30 W/m 6,4 km/h (2 Bft) 97,87 %
20.07.2020 20:44 19,9 C 18,3 C 17,8 C 56 % 1020,5 hPa 0,0 l/m 0 min 0 min 27 W/m 9,7 km/h (2 Bft) 100,00 %
20.07.2020 20:46 19,9 C 18,3 C 17,8 C 57 % 1020,6 hPa 0,0 l/m 0 min 0 min 25 W/m 16,1 km/h (3 Bft) 100,00 %
20.07.2020 20:48 19,9 C 18,3 C 17,8 C 57 % 1020,6 hPa 0,0 l/m 0 min 0 min 25 W/m 6,4 km/h (2 Bft) 100,00 %
20.07.2020 20:50 19,8 C 18,3 C 17,8 C 58 % 1020,6 hPa 0,0 l/m 0 min 0 min 23 W/m 3,2 km/h (1 Bft) 100,00 %
20.07.2020 20:52 19,8 C 18,3 C 17,8 C 58 % 1020,8 hPa 0,0 l/m 0 min 0 min 22 W/m 9,7 km/h (2 Bft) 100,00 %
20.07.2020 20:54 19,7 C 17,8 C 17,8 C 58 % 1020,8 hPa 0,0 l/m 0 min 0 min 21 W/m 3,2 km/h (1 Bft) 100,00 %
20.07.2020 20:56 19,7 C 17,8 C 17,2 C 58 % 1020,9 hPa 0,0 l/m 0 min 0 min 19 W/m 6,4 km/h (2 Bft) 100,00 %
20.07.2020 20:58 19,7 C 17,8 C 17,2 C 58 % 1020,9 hPa 0,0 l/m 0 min 0 min 18 W/m 3,2 km/h (1 Bft) 100,00 %
20.07.2020 21:00 19,6 C 17,8 C 17,2 C 59 % 1020,9 hPa 0,0 l/m 0 min 0 min 18 W/m 3,2 km/h (1 Bft) 100,00 %
20.07.2020 21:02 19,6 C 17,8 C 17,2 C 59 % 1020,9 hPa 0,0 l/m 0 min 0 min 17 W/m 3,2 km/h (1 Bft) 100,00 %
20.07.2020 21:04 19,6 C 17,2 C 17,2 C 59 % 1020,9 hPa 0,0 l/m 0 min 0 min 16 W/m 3,2 km/h (1 Bft) 97,67 %
20.07.2020 21:06 19,5 C 17,2 C 17,2 C 59 % 1021,0 hPa 0,0 l/m 0 min 0 min 16 W/m 9,7 km/h (2 Bft) 100,00 %
20.07.2020 21:08 19,4 C 17,2 C 16,7 C 59 % 1021,0 hPa 0,0 l/m 0 min 0 min 14 W/m 3,2 km/h (1 Bft) 97,87 %
20.07.2020 21:10 19,3 C 17,2 C 17,2 C 59 % 1021,0 hPa 0,0 l/m 0 min 0 min 14 W/m 6,4 km/h (2 Bft) 95,74 %
20.07.2020 21:12 19,3 C 17,2 C 16,7 C 59 % 1021,0 hPa 0,0 l/m 0 min 0 min 12 W/m 9,7 km/h (2 Bft) 97,87 %
20.07.2020 21:14 19,2 C 17,2 C 16,7 C 59 % 1021,0 hPa 0,0 l/m 0 min 0 min 12 W/m 6,4 km/h (2 Bft) 97,87 %
20.07.2020 21:16 19,1 C 17,2 C 16,7 C 59 % 1021,0 hPa 0,0 l/m 0 min 0 min 11 W/m 6,4 km/h (2 Bft) 95,74 %
20.07.2020 21:18 19,1 C 17,2 C 16,7 C 59 % 1021,1 hPa 0,0 l/m 0 min 0 min 11 W/m 6,4 km/h (2 Bft) 95,74 %
20.07.2020 21:20 19,0 C 17,2 C 16,7 C 59 % 1021,1 hPa 0,0 l/m 0 min 0 min 11 W/m 6,4 km/h (2 Bft) 95,74 %
20.07.2020 21:22 18,9 C 17,2 C 16,7 C 60 % 1021,1 hPa 0,0 l/m 0 min 0 min 9 W/m 6,4 km/h (2 Bft) 93,48 %
20.07.2020 21:24 18,9 C 17,2 C 16,7 C 60 % 1021,1 hPa 0,0 l/m 0 min 0 min 9 W/m 3,2 km/h (1 Bft) 95,74 %
20.07.2020 21:26 18,9 C 16,7 C 16,7 C 60 % 1021,2 hPa 0,0 l/m 0 min 0 min 9 W/m 0,0 km/h (0 Bft) 95,74 %
20.07.2020 21:28 18,8 C 16,7 C 16,7 C 60 % 1021,2 hPa 0,0 l/m 0 min 0 min 7 W/m 3,2 km/h (1 Bft) 95,74 %
20.07.2020 21:30 18,8 C 16,7 C 16,1 C 60 % 1021,2 hPa 0,0 l/m 0 min 0 min 7 W/m 3,2 km/h (1 Bft) 95,74 %
20.07.2020 21:32 18,8 C 16,7 C 16,1 C 61 % 1021,2 hPa 0,0 l/m 0 min 0 min 5 W/m 3,2 km/h (1 Bft) 95,35 %
20.07.2020 21:34 18,7 C 16,1 C 16,1 C 61 % 1021,3 hPa 0,0 l/m 0 min 0 min 5 W/m 3,2 km/h (1 Bft) 95,65 %
20.07.2020 21:36 18,6 C 16,1 C 16,1 C 61 % 1021,3 hPa 0,0 l/m 0 min 0 min 4 W/m 6,4 km/h (2 Bft) 93,62 %
20.07.2020 21:38 18,6 C 16,1 C 16,1 C 61 % 1021,4 hPa 0,0 l/m 0 min 0 min 0 W/m 3,2 km/h (1 Bft) 96,00 %
20.07.2020 21:40 18,5 C 16,1 C 16,1 C 62 % 1021,4 hPa 0,0 l/m 0 min 0 min 0 W/m 3,2 km/h (1 Bft) 93,62 %
20.07.2020 21:42 18,4 C 16,1 C 16,1 C 62 % 1021,4 hPa 0,0 l/m 0 min 0 min 0 W/m 3,2 km/h (1 Bft) 93,62 %
20.07.2020 21:44 18,4 C 16,1 C 16,1 C 62 % 1021,4 hPa 0,0 l/m 0 min 0 min 0 W/m 9,7 km/h (2 Bft) 95,65 %
20.07.2020 21:46 18,3 C 16,1 C 16,1 C 61 % 1021,4 hPa 0,0 l/m 0 min 0 min 0 W/m 3,2 km/h (1 Bft) 95,74 %
20.07.2020 21:48 18,3 C 16,1 C 16,1 C 61 % 1021,5 hPa 0,0 l/m 0 min 0 min 0 W/m 9,7 km/h (2 Bft) 91,49 %
20.07.2020 21:50 18,2 C 16,1 C 15,6 C 61 % 1021,5 hPa 0,0 l/m 0 min 0 min 0 W/m 6,4 km/h (2 Bft) 95,74 %
20.07.2020 21:52 18,2 C 16,1 C 15,6 C 62 % 1021,4 hPa 0,0 l/m 0 min 0 min 0 W/m 0,0 km/h (0 Bft) 95,83 %
20.07.2020 21:54 18,1 C 15,6 C 15,6 C 62 % 1021,5 hPa 0,0 l/m 0 min 0 min 0 W/m 6,4 km/h (2 Bft) 95,74 %
20.07.2020 21:56 18,1 C 15,6 C 15,6 C 62 % 1021,5 hPa 0,0 l/m 0 min 0 min 0 W/m 3,2 km/h (1 Bft) 93,48 %
20.07.2020 21:58 18,0 C 15,6 C 15,6 C 62 % 1021,6 hPa 0,0 l/m 0 min 0 min 0 W/m 0,0 km/h (0 Bft) 95,74 %
20.07.2020 22:00 17,9 C 15,6 C 15,6 C 62 % 1021,6 hPa 0,0 l/m 0 min 0 min 0 W/m 0,0 km/h (0 Bft) 95,35 %
20.07.2020 22:02 17,9 C 15,6 C 15,0 C 62 % 1021,6 hPa 0,0 l/m 0 min 0 min 0 W/m 3,2 km/h (1 Bft) 95,74 %
20.07.2020 22:04 17,8 C 15,6 C 15,0 C 62 % 1021,6 hPa 0,0 l/m 0 min 0 min 0 W/m 3,2 km/h (1 Bft) 97,87 %
20.07.2020 22:06 17,8 C 15,6 C 15,0 C 62 % 1021,7 hPa 0,0 l/m 0 min 0 min 0 W/m 3,2 km/h (1 Bft) 95,74 %
20.07.2020 22:08 17,7 C 15,6 C 15,0 C 62 % 1021,7 hPa 0,0 l/m 0 min 0 min 0 W/m 3,2 km/h (1 Bft) 97,83 %
20.07.2020 22:10 17,7 C 15,6 C 15,0 C 62 % 1021,7 hPa 0,0 l/m 0 min 0 min 0 W/m 0,0 km/h (0 Bft) 97,87 %
20.07.2020 22:12 17,7 C 15,6 C 15,0 C 62 % 1021,7 hPa 0,0 l/m 0 min 0 min 0 W/m 0,0 km/h (0 Bft) 95,74 %
20.07.2020 22:14 17,6 C 15,6 C 15,0 C 62 % 1021,7 hPa 0,0 l/m 0 min 0 min 0 W/m 3,2 km/h (1 Bft) 95,74 %
20.07.2020 22:16 17,6 C 15,0 C 15,0 C 62 % 1021,7 hPa 0,0 l/m 0 min 0 min 0 W/m 0,0 km/h (0 Bft) 95,74 %
20.07.2020 22:18 17,5 C 15,0 C 15,0 C 63 % 1021,7 hPa 0,0 l/m 0 min 0 min 0 W/m 3,2 km/h (1 Bft) 97,87 %
20.07.2020 22:20 17,4 C 15,0 C 15,0 C 63 % 1021,8 hPa 0,0 l/m 0 min 0 min 0 W/m 3,2 km/h (1 Bft) 95,65 %
20.07.2020 22:22 17,4 C 15,0 C 15,0 C 63 % 1021,8 hPa 0,0 l/m 0 min 0 min 0 W/m 3,2 km/h (1 Bft) 97,87 %
20.07.2020 22:24 17,3 C 15,0 C 15,0 C 63 % 1021,8 hPa 0,0 l/m 0 min 0 min 0 W/m 3,2 km/h (1 Bft) 98,00 %
20.07.2020 22:26 17,3 C 15,0 C 15,0 C 63 % 1021,8 hPa 0,0 l/m 0 min 0 min 0 W/m 3,2 km/h (1 Bft) 97,87 %
20.07.2020 22:28 17,2 C 15,0 C 14,4 C 63 % 1021,8 hPa 0,0 l/m 0 min 0 min 0 W/m 0,0 km/h (0 Bft) 97,87 %
20.07.2020 22:30 17,2 C 15,0 C 14,4 C 63 % 1021,8 hPa 0,0 l/m 0 min 0 min 0 W/m 3,2 km/h (1 Bft) 95,65 %
20.07.2020 22:32 17,1 C 15,0 C 14,4 C 63 % 1021,8 hPa 0,0 l/m 0 min 0 min 0 W/m 0,0 km/h (0 Bft) 97,87 %
20.07.2020 22:34 17,1 C 15,0 C 14,4 C 63 % 1021,8 hPa 0,0 l/m 0 min 0 min 0 W/m 0,0 km/h (0 Bft) 93,62 %
20.07.2020 22:36 17,1 C 15,0 C 14,4 C 64 % 1021,8 hPa 0,0 l/m 0 min 0 min 0 W/m 3,2 km/h (1 Bft) 97,87 %
20.07.2020 22:38 17,0 C 15,0 C 14,4 C 64 % 1021,8 hPa 0,0 l/m 0 min 0 min 0 W/m 3,2 km/h (1 Bft) 97,87 %
20.07.2020 22:40 16,9 C 15,0 C 14,4 C 64 % 1021,9 hPa 0,0 l/m 0 min 0 min 0 W/m 3,2 km/h (1 Bft) 95,74 %
20.07.2020 22:42 16,9 C 14,4 C 14,4 C 64 % 1021,9 hPa 0,0 l/m 0 min 0 min 0 W/m 3,2 km/h (1 Bft) 97,87 %
20.07.2020 22:44 16,8 C 14,4 C 14,4 C 64 % 1021,9 hPa 0,0 l/m 0 min 0 min 0 W/m 0,0 km/h (0 Bft) 97,87 %
20.07.2020 22:46 16,8 C 14,4 C 14,4 C 64 % 1021,9 hPa 0,0 l/m 0 min 0 min 0 W/m 0,0 km/h (0 Bft) 97,87 %
20.07.2020 22:48 16,7 C 14,4 C 14,4 C 65 % 1021,9 hPa 0,0 l/m 0 min 0 min 0 W/m 3,2 km/h (1 Bft) 97,87 %
20.07.2020 22:50 16,7 C 14,4 C 14,4 C 65 % 1021,9 hPa 0,0 l/m 0 min 0 min 0 W/m 0,0 km/h (0 Bft) 95,74 %
20.07.2020 22:52 16,7 C 14,4 C 14,4 C 65 % 1021,9 hPa 0,0 l/m 0 min 0 min 0 W/m 0,0 km/h (0 Bft) 97,87 %
20.07.2020 22:54 16,6 C 14,4 C 14,4 C 65 % 1021,9 hPa 0,0 l/m 0 min 0 min 0 W/m 0,0 km/h (0 Bft) 97,83 %
20.07.2020 22:56 16,6 C 14,4 C 14,4 C 65 % 1022,0 hPa 0,0 l/m 0 min 0 min 0 W/m 0,0 km/h (0 Bft) 97,87 %
20.07.2020 22:58 16,6 C 14,4 C 13,9 C 65 % 1022,0 hPa 0,0 l/m 0 min 0 min 0 W/m 3,2 km/h (1 Bft) 97,87 %
20.07.2020 23:00 16,5 C 14,4 C 13,9 C 66 % 1022,0 hPa 0,0 l/m 0 min 0 min 0 W/m 3,2 km/h (1 Bft) 97,87 %
20.07.2020 23:02 16,5 C 14,4 C 13,9 C 66 % 1022,1 hPa 0,0 l/m 0 min 0 min 0 W/m 3,2 km/h (1 Bft) 97,83 %
20.07.2020 23:04 16,4 C 14,4 C 13,9 C 66 % 1022,0 hPa 0,0 l/m 0 min 0 min 0 W/m 3,2 km/h (1 Bft) 97,87 %
20.07.2020 23:06 16,4 C 14,4 C 13,9 C 66 % 1022,1 hPa 0,0 l/m 0 min 0 min 0 W/m 0,0 km/h (0 Bft) 93,62 %
20.07.2020 23:08 16,3 C 14,4 C 13,9 C 66 % 1022,1 hPa 0,0 l/m 0 min 0 min 0 W/m 0,0 km/h (0 Bft) 100,00 %
20.07.2020 23:10 16,3 C 14,4 C 13,9 C 67 % 1022,1 hPa 0,0 l/m 0 min 0 min 0 W/m 3,2 km/h (1 Bft) 100,00 %
20.07.2020 23:12 16,3 C 14,4 C 13,9 C 67 % 1022,1 hPa 0,0 l/m 0 min 0 min 0 W/m 0,0 km/h (0 Bft) 100,00 %
20.07.2020 23:14 16,2 C 14,4 C 13,9 C 67 % 1022,2 hPa 0,0 l/m 0 min 0 min 0 W/m 3,2 km/h (1 Bft) 100,00 %
20.07.2020 23:16 16,2 C 14,4 C 13,9 C 67 % 1022,1 hPa 0,0 l/m 0 min 0 min 0 W/m 3,2 km/h (1 Bft) 100,00 %
20.07.2020 23:18 16,2 C 14,4 C 13,9 C 68 % 1022,2 hPa 0,0 l/m 0 min 0 min 0 W/m 0,0 km/h (0 Bft) 100,00 %
20.07.2020 23:20 16,1 C 13,9 C 13,9 C 68 % 1022,2 hPa 0,0 l/m 0 min 0 min 0 W/m 3,2 km/h (1 Bft) 100,00 %
20.07.2020 23:22 16,1 C 13,9 C 13,9 C 68 % 1022,2 hPa 0,0 l/m 0 min 0 min 0 W/m 0,0 km/h (0 Bft) 100,00 %
20.07.2020 23:24 16,1 C 13,9 C 13,9 C 68 % 1022,2 hPa 0,0 l/m 0 min 0 min 0 W/m 3,2 km/h (1 Bft) 100,00 %
20.07.2020 23:26 16,1 C 13,9 C 13,9 C 69 % 1022,2 hPa 0,0 l/m 0 min 0 min 0 W/m 3,2 km/h (1 Bft) 97,87 %
20.07.2020 23:28 16,0 C 13,9 C 13,9 C 69 % 1022,2 hPa 0,0 l/m 0 min 0 min 0 W/m 3,2 km/h (1 Bft) 100,00 %
20.07.2020 23:30 15,9 C 13,9 C 13,9 C 69 % 1022,3 hPa 0,0 l/m 0 min 0 min 0 W/m 3,2 km/h (1 Bft) 100,00 %
20.07.2020 23:32 15,9 C 13,9 C 13,9 C 69 % 1022,3 hPa 0,0 l/m 0 min 0 min 0 W/m 0,0 km/h (0 Bft) 100,00 %
20.07.2020 23:34 15,9 C 13,9 C 13,9 C 70 % 1022,3 hPa 0,0 l/m 0 min 0 min 0 W/m 3,2 km/h (1 Bft) 100,00 %
20.07.2020 23:36 15,8 C 13,9 C 13,9 C 70 % 1022,3 hPa 0,0 l/m 0 min 0 min 0 W/m 3,2 km/h (1 Bft) 100,00 %
20.07.2020 23:38 15,8 C 13,9 C 13,9 C 70 % 1022,4 hPa 0,0 l/m 0 min 0 min 0 W/m 3,2 km/h (1 Bft) 100,00 %
20.07.2020 23:40 15,8 C 13,9 C 13,9 C 70 % 1022,4 hPa 0,0 l/m 0 min 0 min 0 W/m 0,0 km/h (0 Bft) 100,00 %
20.07.2020 23:42 15,7 C 13,9 C 13,9 C 70 % 1022,4 hPa 0,0 l/m 0 min 0 min 0 W/m 0,0 km/h (0 Bft) 100,00 %
20.07.2020 23:44 15,7 C 13,9 C 13,9 C 70 % 1022,3 hPa 0,0 l/m 0 min 0 min 0 W/m 0,0 km/h (0 Bft) 100,00 %
20.07.2020 23:46 15,7 C 13,9 C 13,3 C 71 % 1022,4 hPa 0,0 l/m 0 min 0 min 0 W/m 0,0 km/h (0 Bft) 97,87 %
20.07.2020 23:48 15,6 C 13,9 C 13,3 C 70 % 1022,4 hPa 0,0 l/m 0 min 0 min 0 W/m 0,0 km/h (0 Bft) 100,00 %
20.07.2020 23:50 15,6 C 13,9 C 13,3 C 70 % 1022,4 hPa 0,0 l/m 0 min 0 min 0 W/m 0,0 km/h (0 Bft) 100,00 %
20.07.2020 23:52 15,6 C 13,3 C 13,3 C 70 % 1022,4 hPa 0,0 l/m 0 min 0 min 0 W/m 0,0 km/h (0 Bft) 100,00 %
20.07.2020 23:54 15,6 C 13,3 C 13,3 C 71 % 1022,4 hPa 0,0 l/m 0 min 0 min 0 W/m 0,0 km/h (0 Bft) 97,87 %
20.07.2020 23:56 15,5 C 13,3 C 13,3 C 71 % 1022,4 hPa 0,0 l/m 0 min 0 min 0 W/m 0,0 km/h (0 Bft) 100,00 %
20.07.2020 23:58 15,5 C 13,3 C 13,3 C 71 % 1022,5 hPa 0,0 l/m 0 min 0 min 0 W/m 0,0 km/h (0 Bft) 100,00 %
_ Min-Zeit 07:46 23:52 23:46 15:34 00:32 - - - - 00:00 02:10
Minimum _ 14,9 C 13,3 C 13,3 C 45 % 1016,8 hPa - - - - 0,0 km/h (0 Bft) 52,27 %
_ Max-Zeit 16:56 15:20 13:48 06:56 23:58 05:16 12:08 06:08 13:48 00:02 00:10
Maximum _ 26,8 C 32,2 C 31,1 C 97 % 1022,5 hPa 0,2 l/m 4 min 4 min 1166 W/m 19,3 km/h
W (3 Bft)
100,00 %
Durchschnitt _ 19,5 C 19,7 C 18,5 C 73 % 1019,4 hPa #0,4 l/m #7:04 h #1:00 h 391 W/m 5,6 km/h (1 Bft) 97,39 %
© 2020 W. Hausmann